PWSweather.com
Personal Weather Stations
Station Observations
SONYA
Sergiev PosadRU

Sergiev PosadRU

Lat: 56.28148651, Lon: 38.05462646

Elevation: 741

Station Type: Fine offset WH1091

High Low Average
Temperature 60.3°F15.7°C 38.3°F3.5°C 52.8°F11.6°C
Dew Point 56.0°F13.3°C 37.2°F2.9°C 50.8°F10.4°C
Winds 7.6 mph 12.2 kmh Calm Calm 3.0 mph SSE4.8 kmh SSE
Wind Gusts 13.0 mph20.9 kmh -- 5.0 mph8.0 kmh
Humidity 97% 80% 91%
Pressure 29.46 in997.6 mb 29.08 in984.8 mb -
Precipitation 0.32 in8.1 mm - -
Hour Temp Dew Point Humidity Winds Wind Gusts Pressure Precip Precip Rate Daily Precip Total
12:02 AM 53.2°F11.8°C 52.8°F11.6°C 98% 3.8 mph 6.1 kmh 6.0 mph9.7 kmh 29.21 in989.2 mb 0.00 in0.0 mm 0.00 in0.0 mm 0.24 in6.1 mm
12:03 AM 53.2°F11.8°C 52.8°F11.6°C 98% 2.2 mph E3.5 kmh E 4.5 mph7.2 kmh 29.21 in989.2 mb 0.00 in0.0 mm 0.00 in0.0 mm 0.24 in6.1 mm
12:08 AM 53.2°F11.8°C 52.8°F11.6°C 98% 3.8 mph E6.1 kmh E 5.4 mph8.7 kmh 29.21 in989.2 mb 0.00 in0.0 mm 0.00 in0.0 mm 0.24 in6.1 mm
12:13 AM 53.2°F11.8°C 52.8°F11.6°C 98% 1.6 mph SE2.6 kmh SE 3.1 mph5.0 kmh 29.21 in989.2 mb 0.00 in0.0 mm 0.00 in0.0 mm 0.24 in6.1 mm
12:17 AM 53.2°F11.8°C 52.8°F11.6°C 98% 2.2 mph NW3.5 kmh NW 3.8 mph6.1 kmh 29.20 in988.8 mb 0.00 in0.0 mm 0.00 in0.0 mm 0.24 in6.1 mm
12:18 AM 53.2°F11.8°C 52.8°F11.6°C 98% 1.6 mph SE2.6 kmh SE 3.8 mph6.1 kmh 29.20 in988.8 mb 0.00 in0.0 mm 0.00 in0.0 mm 0.24 in6.1 mm
12:22 AM 53.2°F11.8°C 52.8°F11.6°C 98% 2.2 mph S3.5 kmh S 4.5 mph7.2 kmh 29.19 in988.5 mb 0.00 in0.0 mm 0.00 in0.0 mm 0.24 in6.1 mm
12:23 AM 53.2°F11.8°C 52.8°F11.6°C 98% 1.6 mph E2.6 kmh E 4.5 mph7.2 kmh 29.20 in988.8 mb 0.00 in0.0 mm 0.00 in0.0 mm 0.24 in6.1 mm
12:28 AM 53.2°F11.8°C 52.8°F11.6°C 98% 2.2 mph SE3.5 kmh SE 3.8 mph6.1 kmh 29.20 in988.8 mb 0.01 in0.3 mm 0.14 in3.6 mm 0.25 in6.4 mm
12:33 AM 53.2°F11.8°C 52.8°F11.6°C 98% 3.1 mph E5.0 kmh E 6.0 mph9.7 kmh 29.20 in988.8 mb 0.01 in0.3 mm 0.00 in0.0 mm 0.25 in6.4 mm
12:37 AM 53.4°F11.9°C 53.0°F11.7°C 98% 3.1 mph E5.0 kmh E 6.9 mph11.1 kmh 29.19 in988.5 mb 0.01 in0.3 mm 0.00 in0.0 mm 0.25 in6.4 mm
12:38 AM 53.4°F11.9°C 53.0°F11.7°C 98% 3.1 mph SE5.0 kmh SE 5.4 mph8.7 kmh 29.19 in988.5 mb 0.01 in0.3 mm 0.00 in0.0 mm 0.25 in6.4 mm
12:42 AM 53.4°F11.9°C 53.0°F11.7°C 98% 1.6 mph 2.6 kmh 4.5 mph7.2 kmh 29.19 in988.5 mb 0.01 in0.3 mm 0.00 in0.0 mm 0.25 in6.4 mm
12:43 AM 53.4°F11.9°C 53.0°F11.7°C 98% 3.1 mph E5.0 kmh E 5.4 mph8.7 kmh 29.19 in988.5 mb 0.01 in0.3 mm 0.00 in0.0 mm 0.25 in6.4 mm
12:48 AM 53.4°F11.9°C 53.0°F11.7°C 98% 3.1 mph S5.0 kmh S 5.4 mph8.7 kmh 29.19 in988.5 mb 0.01 in0.3 mm 0.00 in0.0 mm 0.25 in6.4 mm
12:53 AM 53.4°F11.9°C 53.0°F11.7°C 98% 3.1 mph E5.0 kmh E 6.0 mph9.7 kmh 29.18 in988.1 mb 0.01 in0.3 mm 0.00 in0.0 mm 0.25 in6.4 mm
12:57 AM 53.4°F11.9°C 53.0°F11.7°C 98% 2.2 mph 3.5 kmh 3.1 mph5.0 kmh 29.18 in988.1 mb 0.01 in0.3 mm 0.00 in0.0 mm 0.25 in6.4 mm
12:58 AM 53.4°F11.9°C 53.0°F11.7°C 98% 1.6 mph NE2.6 kmh NE 5.4 mph8.7 kmh 29.18 in988.1 mb 0.01 in0.3 mm 0.00 in0.0 mm 0.25 in6.4 mm
01:02 AM 53.4°F11.9°C 53.0°F11.7°C 98% 1.6 mph NW2.6 kmh NW 3.8 mph6.1 kmh 29.18 in988.1 mb 0.01 in0.3 mm 0.00 in0.0 mm 0.25 in6.4 mm
01:03 AM 53.4°F11.9°C 53.0°F11.7°C 98% 0.7 mph NE1.1 kmh NE 1.6 mph2.6 kmh 29.19 in988.5 mb 0.01 in0.3 mm 0.00 in0.0 mm 0.25 in6.4 mm
01:08 AM 53.4°F11.9°C 53.0°F11.7°C 98% 0.7 mph SE1.1 kmh SE 1.6 mph2.6 kmh 29.18 in988.1 mb 0.01 in0.3 mm 0.00 in0.0 mm 0.25 in6.4 mm
01:13 AM 53.4°F11.9°C 53.0°F11.7°C 98% 3.8 mph SSE6.1 kmh SSE 6.0 mph9.7 kmh 29.18 in988.1 mb 0.01 in0.3 mm 0.00 in0.0 mm 0.25 in6.4 mm
01:17 AM 53.6°F12.0°C 53.0°F11.7°C 97% 0.7 mph S1.1 kmh S 1.6 mph2.6 kmh 29.18 in988.1 mb 0.01 in0.3 mm 0.00 in0.0 mm 0.25 in6.4 mm
01:18 AM 53.4°F11.9°C 53.0°F11.7°C 98% 2.2 mph NE3.5 kmh NE 3.1 mph5.0 kmh 29.18 in988.1 mb 0.01 in0.3 mm 0.00 in0.0 mm 0.25 in6.4 mm
01:22 AM 53.6°F12.0°C 53.0°F11.7°C 97% 3.1 mph E5.0 kmh E 5.4 mph8.7 kmh 29.18 in988.1 mb 0.01 in0.3 mm 0.00 in0.0 mm 0.25 in6.4 mm
01:23 AM 53.6°F12.0°C 53.0°F11.7°C 97% 1.6 mph SW2.6 kmh SW 3.8 mph6.1 kmh 29.18 in988.1 mb 0.01 in0.3 mm 0.00 in0.0 mm 0.25 in6.4 mm
01:28 AM 53.6°F12.0°C 53.0°F11.7°C 97% 4.5 mph 7.2 kmh 5.4 mph8.7 kmh 29.18 in988.1 mb 0.00 in0.0 mm 0.00 in0.0 mm 0.25 in6.4 mm
01:33 AM 53.6°F12.0°C 53.0°F11.7°C 97% 1.6 mph SE2.6 kmh SE 3.8 mph6.1 kmh 29.18 in988.1 mb 0.00 in0.0 mm 0.00 in0.0 mm 0.25 in6.4 mm
01:37 AM 53.6°F12.0°C 53.0°F11.7°C 97% 4.5 mph E7.2 kmh E 6.0 mph9.7 kmh 29.18 in988.1 mb 0.00 in0.0 mm 0.00 in0.0 mm 0.25 in6.4 mm
01:38 AM 53.6°F12.0°C 53.0°F11.7°C 97% 3.8 mph 6.1 kmh 6.0 mph9.7 kmh 29.17 in987.8 mb 0.00 in0.0 mm 0.00 in0.0 mm 0.25 in6.4 mm
01:42 AM 53.6°F12.0°C 53.0°F11.7°C 97% 4.5 mph SE7.2 kmh SE 6.9 mph11.1 kmh 29.17 in987.8 mb 0.00 in0.0 mm 0.00 in0.0 mm 0.25 in6.4 mm
01:43 AM 53.6°F12.0°C 53.0°F11.7°C 97% 3.1 mph E5.0 kmh E 6.0 mph9.7 kmh 29.17 in987.8 mb 0.00 in0.0 mm 0.00 in0.0 mm 0.25 in6.4 mm
01:48 AM 53.6°F12.0°C 53.0°F11.7°C 97% 3.1 mph ENE5.0 kmh ENE 5.4 mph8.7 kmh 29.17 in987.8 mb 0.00 in0.0 mm 0.00 in0.0 mm 0.25 in6.4 mm
01:53 AM 53.6°F12.0°C 53.0°F11.7°C 97% 2.2 mph SE3.5 kmh SE 5.4 mph8.7 kmh 29.17 in987.8 mb 0.00 in0.0 mm 0.00 in0.0 mm 0.25 in6.4 mm
01:57 AM 53.6°F12.0°C 53.0°F11.7°C 97% 2.2 mph SE3.5 kmh SE 5.4 mph8.7 kmh 29.16 in987.5 mb 0.00 in0.0 mm 0.00 in0.0 mm 0.25 in6.4 mm
01:58 AM 53.6°F12.0°C 53.0°F11.7°C 97% 0.7 mph 1.1 kmh 1.6 mph2.6 kmh 29.16 in987.5 mb 0.00 in0.0 mm 0.00 in0.0 mm 0.25 in6.4 mm
02:02 AM 53.6°F12.0°C 53.0°F11.7°C 97% 1.6 mph WSW2.6 kmh WSW 6.0 mph9.7 kmh 29.17 in987.8 mb 0.00 in0.0 mm 0.00 in0.0 mm 0.25 in6.4 mm
02:03 AM 53.6°F12.0°C 53.0°F11.7°C 97% 2.2 mph NE3.5 kmh NE 3.8 mph6.1 kmh 29.16 in987.5 mb 0.00 in0.0 mm 0.00 in0.0 mm 0.25 in6.4 mm
02:08 AM 53.8°F12.1°C 53.2°F11.8°C 97% 4.5 mph E7.2 kmh E 8.3 mph13.4 kmh 29.16 in987.5 mb 0.00 in0.0 mm 0.00 in0.0 mm 0.25 in6.4 mm
02:13 AM 53.8°F12.1°C 53.2°F11.8°C 97% 2.2 mph NE3.5 kmh NE 4.5 mph7.2 kmh 29.16 in987.5 mb 0.00 in0.0 mm 0.00 in0.0 mm 0.25 in6.4 mm
02:17 AM 53.8°F12.1°C 53.2°F11.8°C 97% 3.8 mph NE6.1 kmh NE 7.6 mph12.2 kmh 29.16 in987.5 mb 0.00 in0.0 mm 0.00 in0.0 mm 0.25 in6.4 mm
02:18 AM 53.8°F12.1°C 53.2°F11.8°C 97% 0.7 mph SE1.1 kmh SE 2.2 mph3.5 kmh 29.16 in987.5 mb 0.00 in0.0 mm 0.00 in0.0 mm 0.25 in6.4 mm
02:22 AM 53.8°F12.1°C 53.2°F11.8°C 97% 2.2 mph N3.5 kmh N 5.4 mph8.7 kmh 29.16 in987.5 mb 0.00 in0.0 mm 0.00 in0.0 mm 0.25 in6.4 mm
02:23 AM 53.8°F12.1°C 53.2°F11.8°C 97% 3.8 mph SE6.1 kmh SE 6.0 mph9.7 kmh 29.16 in987.5 mb 0.00 in0.0 mm 0.00 in0.0 mm 0.25 in6.4 mm
02:28 AM 53.8°F12.1°C 53.2°F11.8°C 97% 2.2 mph NE3.5 kmh NE 4.5 mph7.2 kmh 29.16 in987.5 mb 0.00 in0.0 mm 0.00 in0.0 mm 0.25 in6.4 mm
02:33 AM 53.8°F12.1°C 53.2°F11.8°C 97% 1.6 mph NE2.6 kmh NE 3.1 mph5.0 kmh 29.16 in987.5 mb 0.00 in0.0 mm 0.00 in0.0 mm 0.25 in6.4 mm
02:37 AM 53.8°F12.1°C 53.2°F11.8°C 97% 0.7 mph E1.1 kmh E 3.1 mph5.0 kmh 29.15 in987.1 mb 0.00 in0.0 mm 0.00 in0.0 mm 0.25 in6.4 mm
02:38 AM 53.8°F12.1°C 53.2°F11.8°C 97% 3.1 mph SE5.0 kmh SE 6.0 mph9.7 kmh 29.16 in987.5 mb 0.00 in0.0 mm 0.00 in0.0 mm 0.25 in6.4 mm
02:42 AM 53.8°F12.1°C 53.2°F11.8°C 97% 3.1 mph E5.0 kmh E 4.5 mph7.2 kmh 29.16 in987.5 mb 0.00 in0.0 mm 0.00 in0.0 mm 0.25 in6.4 mm
02:43 AM 54.0°F12.2°C 53.3°F11.8°C 97% 0.7 mph SE1.1 kmh SE 3.8 mph6.1 kmh 29.16 in987.5 mb 0.00 in0.0 mm 0.00 in0.0 mm 0.25 in6.4 mm
02:48 AM 54.0°F12.2°C 53.3°F11.8°C 97% 3.8 mph E6.1 kmh E 8.3 mph13.4 kmh 29.15 in987.1 mb 0.00 in0.0 mm 0.00 in0.0 mm 0.25 in6.4 mm
02:53 AM 54.0°F12.2°C 53.3°F11.8°C 97% 0.7 mph S1.1 kmh S 3.1 mph5.0 kmh 29.15 in987.1 mb 0.00 in0.0 mm 0.00 in0.0 mm 0.25 in6.4 mm
02:57 AM 54.0°F12.2°C 53.3°F11.8°C 97% 4.5 mph E7.2 kmh E 7.6 mph12.2 kmh 29.15 in987.1 mb 0.00 in0.0 mm 0.00 in0.0 mm 0.25 in6.4 mm
02:58 AM 54.0°F12.2°C 53.3°F11.8°C 97% 5.4 mph NE8.7 kmh NE 6.0 mph9.7 kmh 29.16 in987.5 mb 0.00 in0.0 mm 0.00 in0.0 mm 0.25 in6.4 mm
03:02 AM 54.0°F12.2°C 53.3°F11.8°C 97% 3.1 mph NE5.0 kmh NE 4.5 mph7.2 kmh 29.15 in987.1 mb 0.00 in0.0 mm 0.00 in0.0 mm 0.25 in6.4 mm
03:03 AM 54.0°F12.2°C 53.3°F11.8°C 97% 4.5 mph 7.2 kmh 6.9 mph11.1 kmh 29.15 in987.1 mb 0.00 in0.0 mm 0.00 in0.0 mm 0.25 in6.4 mm
03:08 AM 54.0°F12.2°C 53.3°F11.8°C 97% 3.1 mph SE5.0 kmh SE 5.4 mph8.7 kmh 29.15 in987.1 mb 0.00 in0.0 mm 0.00 in0.0 mm 0.25 in6.4 mm
03:13 AM 54.0°F12.2°C 53.3°F11.8°C 97% 3.1 mph 5.0 kmh 5.4 mph8.7 kmh 29.15 in987.1 mb 0.00 in0.0 mm 0.00 in0.0 mm 0.25 in6.4 mm
03:17 AM 54.1°F12.3°C 53.5°F11.9°C 97% 3.8 mph SW6.1 kmh SW 5.4 mph8.7 kmh 29.14 in986.8 mb 0.00 in0.0 mm 0.00 in0.0 mm 0.25 in6.4 mm
03:18 AM 54.1°F12.3°C 53.5°F11.9°C 97% 2.2 mph SW3.5 kmh SW 4.5 mph7.2 kmh 29.15 in987.1 mb 0.00 in0.0 mm 0.00 in0.0 mm 0.25 in6.4 mm
03:22 AM 54.1°F12.3°C 53.5°F11.9°C 97% 1.6 mph NW2.6 kmh NW 3.8 mph6.1 kmh 29.14 in986.8 mb 0.00 in0.0 mm 0.00 in0.0 mm 0.25 in6.4 mm
03:23 AM 54.1°F12.3°C 53.5°F11.9°C 97% 3.1 mph 5.0 kmh 4.5 mph7.2 kmh 29.15 in987.1 mb 0.00 in0.0 mm 0.00 in0.0 mm 0.25 in6.4 mm
03:28 AM 54.1°F12.3°C 53.5°F11.9°C 97% 3.1 mph NE5.0 kmh NE 4.5 mph7.2 kmh 29.14 in986.8 mb 0.00 in0.0 mm 0.00 in0.0 mm 0.25 in6.4 mm
03:33 AM 54.1°F12.3°C 53.5°F11.9°C 97% 2.2 mph SE3.5 kmh SE 3.8 mph6.1 kmh 29.14 in986.8 mb 0.00 in0.0 mm 0.00 in0.0 mm 0.25 in6.4 mm
03:37 AM 54.1°F12.3°C 53.5°F11.9°C 97% 3.1 mph E5.0 kmh E 4.5 mph7.2 kmh 29.14 in986.8 mb 0.00 in0.0 mm 0.00 in0.0 mm 0.25 in6.4 mm
03:38 AM 54.1°F12.3°C 53.5°F11.9°C 97% 2.2 mph E3.5 kmh E 3.8 mph6.1 kmh 29.14 in986.8 mb 0.00 in0.0 mm 0.00 in0.0 mm 0.25 in6.4 mm
03:42 AM 54.1°F12.3°C 53.5°F11.9°C 97% 2.2 mph E3.5 kmh E 3.8 mph6.1 kmh 29.14 in986.8 mb 0.00 in0.0 mm 0.00 in0.0 mm 0.25 in6.4 mm
03:43 AM 54.1°F12.3°C 53.5°F11.9°C 97% 2.2 mph NE3.5 kmh NE 6.0 mph9.7 kmh 29.14 in986.8 mb 0.00 in0.0 mm 0.00 in0.0 mm 0.25 in6.4 mm
03:48 AM 54.3°F12.4°C 53.7°F12.1°C 97% 1.6 mph E2.6 kmh E 3.8 mph6.1 kmh 29.13 in986.5 mb 0.01 in0.3 mm 0.14 in3.6 mm 0.26 in6.6 mm
03:53 AM 54.3°F12.4°C 53.7°F12.1°C 97% 3.1 mph NE5.0 kmh NE 3.8 mph6.1 kmh 29.13 in986.5 mb 0.01 in0.3 mm 0.00 in0.0 mm 0.26 in6.6 mm
03:57 AM 54.3°F12.4°C 53.7°F12.1°C 97% 3.1 mph NE5.0 kmh NE 4.5 mph7.2 kmh 29.13 in986.5 mb 0.01 in0.3 mm 0.00 in0.0 mm 0.26 in6.6 mm
03:58 AM 54.3°F12.4°C 53.7°F12.1°C 97% 0.7 mph NE1.1 kmh NE 3.8 mph6.1 kmh 29.13 in986.5 mb 0.01 in0.3 mm 0.00 in0.0 mm 0.26 in6.6 mm
04:02 AM 54.3°F12.4°C 53.7°F12.1°C 97% 3.1 mph NW5.0 kmh NW 4.5 mph7.2 kmh 29.13 in986.5 mb 0.01 in0.3 mm 0.00 in0.0 mm 0.26 in6.6 mm
04:03 AM 54.3°F12.4°C 53.7°F12.1°C 97% 3.8 mph SE6.1 kmh SE 6.9 mph11.1 kmh 29.13 in986.5 mb 0.01 in0.3 mm 0.00 in0.0 mm 0.26 in6.6 mm
04:08 AM 54.3°F12.4°C 53.7°F12.1°C 97% 1.6 mph 2.6 kmh 3.8 mph6.1 kmh 29.13 in986.5 mb 0.01 in0.3 mm 0.00 in0.0 mm 0.26 in6.6 mm
04:13 AM 54.5°F12.5°C 53.9°F12.2°C 97% 2.2 mph E3.5 kmh E 5.4 mph8.7 kmh 29.13 in986.5 mb 0.01 in0.3 mm 0.00 in0.0 mm 0.26 in6.6 mm
04:17 AM 54.5°F12.5°C 53.9°F12.2°C 97% 1.6 mph E2.6 kmh E 3.1 mph5.0 kmh 29.13 in986.5 mb 0.01 in0.3 mm 0.00 in0.0 mm 0.26 in6.6 mm
04:18 AM 54.5°F12.5°C 53.9°F12.2°C 97% 2.2 mph 3.5 kmh 6.0 mph9.7 kmh 29.13 in986.5 mb 0.01 in0.3 mm 0.00 in0.0 mm 0.26 in6.6 mm
04:22 AM 54.5°F12.5°C 53.9°F12.2°C 97% 3.1 mph NE5.0 kmh NE 6.0 mph9.7 kmh 29.12 in986.1 mb 0.01 in0.3 mm 0.00 in0.0 mm 0.26 in6.6 mm
04:23 AM 54.5°F12.5°C 53.9°F12.2°C 97% 2.2 mph E3.5 kmh E 3.1 mph5.0 kmh 29.13 in986.5 mb 0.01 in0.3 mm 0.00 in0.0 mm 0.26 in6.6 mm
04:28 AM 54.5°F12.5°C 53.9°F12.2°C 97% 4.5 mph E7.2 kmh E 7.6 mph12.2 kmh 29.12 in986.1 mb 0.01 in0.3 mm 0.00 in0.0 mm 0.26 in6.6 mm
04:33 AM 54.5°F12.5°C 53.9°F12.2°C 97% 2.2 mph NE3.5 kmh NE 3.1 mph5.0 kmh 29.12 in986.1 mb 0.01 in0.3 mm 0.00 in0.0 mm 0.26 in6.6 mm
04:37 AM 54.7°F12.6°C 54.0°F12.2°C 97% 4.5 mph ENE7.2 kmh ENE 6.9 mph11.1 kmh 29.11 in985.8 mb 0.01 in0.3 mm 0.00 in0.0 mm 0.25 in6.4 mm
04:38 AM 54.5°F12.5°C 53.9°F12.2°C 97% 5.4 mph SW8.7 kmh SW 8.3 mph13.4 kmh 29.12 in986.1 mb 0.01 in0.3 mm 0.00 in0.0 mm 0.26 in6.6 mm
04:42 AM 54.7°F12.6°C 54.0°F12.2°C 97% 3.1 mph NE5.0 kmh NE 5.4 mph8.7 kmh 29.11 in985.8 mb 0.01 in0.3 mm 0.00 in0.0 mm 0.25 in6.4 mm
04:43 AM 54.7°F12.6°C 54.0°F12.2°C 97% 2.2 mph E3.5 kmh E 4.5 mph7.2 kmh 29.11 in985.8 mb 0.01 in0.3 mm 0.00 in0.0 mm 0.25 in6.4 mm
04:48 AM 54.7°F12.6°C 54.0°F12.2°C 97% 3.1 mph SE5.0 kmh SE 3.8 mph6.1 kmh 29.12 in986.1 mb 0.00 in0.0 mm 0.00 in0.0 mm 0.25 in6.4 mm
04:53 AM 54.7°F12.6°C 54.0°F12.2°C 97% 3.1 mph NE5.0 kmh NE 7.6 mph12.2 kmh 29.11 in985.8 mb 0.00 in0.0 mm 0.00 in0.0 mm 0.25 in6.4 mm
04:57 AM 54.7°F12.6°C 54.0°F12.2°C 97% 3.1 mph NE5.0 kmh NE 5.4 mph8.7 kmh 29.10 in985.4 mb 0.00 in0.0 mm 0.00 in0.0 mm 0.25 in6.4 mm
04:58 AM 54.7°F12.6°C 54.0°F12.2°C 97% 3.1 mph E5.0 kmh E 6.0 mph9.7 kmh 29.11 in985.8 mb 0.00 in0.0 mm 0.00 in0.0 mm 0.25 in6.4 mm
05:02 AM 54.7°F12.6°C 54.0°F12.2°C 97% 2.2 mph NE3.5 kmh NE 4.5 mph7.2 kmh 29.11 in985.8 mb 0.00 in0.0 mm 0.00 in0.0 mm 0.25 in6.4 mm
05:03 AM 54.7°F12.6°C 54.0°F12.2°C 97% 0.7 mph E1.1 kmh E 4.5 mph7.2 kmh 29.11 in985.8 mb 0.00 in0.0 mm 0.00 in0.0 mm 0.25 in6.4 mm
05:08 AM 54.9°F12.7°C 54.2°F12.3°C 97% 2.2 mph SW3.5 kmh SW 3.8 mph6.1 kmh 29.11 in985.8 mb 0.00 in0.0 mm 0.00 in0.0 mm 0.25 in6.4 mm
05:13 AM 54.9°F12.7°C 54.2°F12.3°C 97% 3.8 mph SE6.1 kmh SE 5.4 mph8.7 kmh 29.11 in985.8 mb 0.00 in0.0 mm 0.00 in0.0 mm 0.25 in6.4 mm
05:17 AM 54.9°F12.7°C 54.2°F12.3°C 97% 3.1 mph SE5.0 kmh SE 6.0 mph9.7 kmh 29.10 in985.4 mb 0.00 in0.0 mm 0.00 in0.0 mm 0.25 in6.4 mm
05:18 AM 54.9°F12.7°C 54.2°F12.3°C 97% 3.1 mph E5.0 kmh E 7.6 mph12.2 kmh 29.10 in985.4 mb 0.00 in0.0 mm 0.00 in0.0 mm 0.25 in6.4 mm
05:22 AM 54.9°F12.7°C 54.2°F12.3°C 97% 3.8 mph S6.1 kmh S 9.2 mph14.8 kmh 29.11 in985.8 mb 0.00 in0.0 mm 0.00 in0.0 mm 0.25 in6.4 mm
05:23 AM 54.9°F12.7°C 54.2°F12.3°C 97% 1.6 mph SE2.6 kmh SE 3.8 mph6.1 kmh 29.10 in985.4 mb 0.00 in0.0 mm 0.00 in0.0 mm 0.25 in6.4 mm
05:28 AM 54.9°F12.7°C 54.2°F12.3°C 97% 4.5 mph SE7.2 kmh SE 7.6 mph12.2 kmh 29.10 in985.4 mb 0.00 in0.0 mm 0.00 in0.0 mm 0.25 in6.4 mm
05:33 AM 55.0°F12.8°C 54.4°F12.4°C 97% 2.2 mph 3.5 kmh 4.5 mph7.2 kmh 29.11 in985.8 mb 0.00 in0.0 mm 0.00 in0.0 mm 0.25 in6.4 mm
05:37 AM 55.0°F12.8°C 54.4°F12.4°C 97% 2.2 mph 3.5 kmh 4.5 mph7.2 kmh 29.10 in985.4 mb 0.00 in0.0 mm 0.00 in0.0 mm 0.25 in6.4 mm
05:38 AM 55.0°F12.8°C 54.4°F12.4°C 97% 0.7 mph NE1.1 kmh NE 3.1 mph5.0 kmh 29.11 in985.8 mb 0.00 in0.0 mm 0.00 in0.0 mm 0.25 in6.4 mm
05:42 AM 55.0°F12.8°C 54.4°F12.4°C 97% 2.2 mph 3.5 kmh 3.8 mph6.1 kmh 29.10 in985.4 mb 0.00 in0.0 mm 0.00 in0.0 mm 0.25 in6.4 mm
05:43 AM 55.0°F12.8°C 54.4°F12.4°C 97% 3.1 mph SE5.0 kmh SE 6.0 mph9.7 kmh 29.10 in985.4 mb 0.00 in0.0 mm 0.00 in0.0 mm 0.25 in6.4 mm
05:48 AM 55.0°F12.8°C 54.4°F12.4°C 97% 3.1 mph SE5.0 kmh SE 5.4 mph8.7 kmh 29.10 in985.4 mb 0.00 in0.0 mm 0.00 in0.0 mm 0.25 in6.4 mm
05:53 AM 55.0°F12.8°C 54.4°F12.4°C 97% 3.1 mph NE5.0 kmh NE 5.4 mph8.7 kmh 29.10 in985.4 mb 0.00 in0.0 mm 0.00 in0.0 mm 0.25 in6.4 mm
05:57 AM 55.0°F12.8°C 54.4°F12.4°C 97% 1.6 mph SW2.6 kmh SW 3.8 mph6.1 kmh 29.10 in985.4 mb 0.00 in0.0 mm 0.00 in0.0 mm 0.25 in6.4 mm
05:58 AM 54.9°F12.7°C 54.2°F12.3°C 97% 2.2 mph S3.5 kmh S 3.8 mph6.1 kmh 29.10 in985.4 mb 0.00 in0.0 mm 0.00 in0.0 mm 0.25 in6.4 mm
06:02 AM 55.0°F12.8°C 54.4°F12.4°C 97% 1.6 mph E2.6 kmh E 3.1 mph5.0 kmh 29.10 in985.4 mb 0.00 in0.0 mm 0.00 in0.0 mm 0.25 in6.4 mm
06:03 AM 55.0°F12.8°C 54.4°F12.4°C 97% 3.1 mph NE5.0 kmh NE 4.5 mph7.2 kmh 29.09 in985.1 mb 0.00 in0.0 mm 0.00 in0.0 mm 0.25 in6.4 mm
06:08 AM 55.0°F12.8°C 54.4°F12.4°C 97% 2.2 mph 3.5 kmh 4.5 mph7.2 kmh 29.10 in985.4 mb 0.00 in0.0 mm 0.00 in0.0 mm 0.25 in6.4 mm
06:13 AM 55.0°F12.8°C 54.4°F12.4°C 97% 3.8 mph E6.1 kmh E 6.9 mph11.1 kmh 29.10 in985.4 mb 0.00 in0.0 mm 0.00 in0.0 mm 0.25 in6.4 mm
06:17 AM 55.0°F12.8°C 54.4°F12.4°C 97% 5.4 mph SE8.7 kmh SE 8.3 mph13.4 kmh 29.10 in985.4 mb 0.00 in0.0 mm 0.00 in0.0 mm 0.25 in6.4 mm
06:18 AM 55.0°F12.8°C 54.4°F12.4°C 97% 3.8 mph NE6.1 kmh NE 7.6 mph12.2 kmh 29.10 in985.4 mb 0.00 in0.0 mm 0.00 in0.0 mm 0.25 in6.4 mm
06:22 AM 55.0°F12.8°C 54.4°F12.4°C 97% 1.6 mph E2.6 kmh E 3.1 mph5.0 kmh 29.10 in985.4 mb 0.00 in0.0 mm 0.00 in0.0 mm 0.25 in6.4 mm
06:23 AM 55.0°F12.8°C 54.4°F12.4°C 97% 1.6 mph NE2.6 kmh NE 5.4 mph8.7 kmh 29.10 in985.4 mb 0.00 in0.0 mm 0.00 in0.0 mm 0.25 in6.4 mm
06:28 AM 55.0°F12.8°C 54.4°F12.4°C 97% 3.1 mph NE5.0 kmh NE 5.4 mph8.7 kmh 29.09 in985.1 mb 0.00 in0.0 mm 0.00 in0.0 mm 0.25 in6.4 mm
06:33 AM 55.0°F12.8°C 54.4°F12.4°C 97% 0.7 mph NE1.1 kmh NE 4.5 mph7.2 kmh 29.09 in985.1 mb 0.00 in0.0 mm 0.00 in0.0 mm 0.25 in6.4 mm
06:37 AM 55.0°F12.8°C 54.4°F12.4°C 97% 3.1 mph SE5.0 kmh SE 5.4 mph8.7 kmh 29.09 in985.1 mb 0.00 in0.0 mm 0.00 in0.0 mm 0.25 in6.4 mm
06:38 AM 55.0°F12.8°C 54.4°F12.4°C 97% 2.2 mph NE3.5 kmh NE 4.5 mph7.2 kmh 29.09 in985.1 mb 0.00 in0.0 mm 0.00 in0.0 mm 0.25 in6.4 mm
06:42 AM 55.0°F12.8°C 54.4°F12.4°C 97% 4.5 mph E7.2 kmh E 6.9 mph11.1 kmh 29.09 in985.1 mb 0.00 in0.0 mm 0.00 in0.0 mm 0.25 in6.4 mm
06:43 AM 55.0°F12.8°C 54.4°F12.4°C 97% 2.2 mph S3.5 kmh S 4.5 mph7.2 kmh 29.09 in985.1 mb 0.00 in0.0 mm 0.00 in0.0 mm 0.25 in6.4 mm
06:48 AM 55.0°F12.8°C 54.4°F12.4°C 97% 2.2 mph SE3.5 kmh SE 4.5 mph7.2 kmh 29.09 in985.1 mb 0.00 in0.0 mm 0.00 in0.0 mm 0.25 in6.4 mm
06:53 AM 55.0°F12.8°C 54.4°F12.4°C 97% 3.1 mph NW5.0 kmh NW 6.0 mph9.7 kmh 29.09 in985.1 mb 0.00 in0.0 mm 0.00 in0.0 mm 0.25 in6.4 mm
06:57 AM 55.0°F12.8°C 54.4°F12.4°C 97% 3.1 mph NE5.0 kmh NE 5.4 mph8.7 kmh 29.08 in984.8 mb 0.00 in0.0 mm 0.00 in0.0 mm 0.25 in6.4 mm
06:58 AM 55.0°F12.8°C 54.4°F12.4°C 97% 2.2 mph 3.5 kmh 3.1 mph5.0 kmh 29.09 in985.1 mb 0.00 in0.0 mm 0.00 in0.0 mm 0.25 in6.4 mm
07:02 AM 55.0°F12.8°C 54.4°F12.4°C 97% 1.6 mph E2.6 kmh E 3.1 mph5.0 kmh 29.09 in985.1 mb 0.00 in0.0 mm 0.00 in0.0 mm 0.25 in6.4 mm
07:03 AM 55.0°F12.8°C 54.4°F12.4°C 97% 3.8 mph SE6.1 kmh SE 6.9 mph11.1 kmh 29.09 in985.1 mb 0.00 in0.0 mm 0.00 in0.0 mm 0.25 in6.4 mm
07:08 AM 55.0°F12.8°C 54.4°F12.4°C 97% 3.8 mph SE6.1 kmh SE 6.0 mph9.7 kmh 29.09 in985.1 mb 0.00 in0.0 mm 0.00 in0.0 mm 0.25 in6.4 mm
07:13 AM 55.0°F12.8°C 54.4°F12.4°C 97% 3.1 mph SE5.0 kmh SE 6.0 mph9.7 kmh 29.09 in985.1 mb 0.00 in0.0 mm 0.00 in0.0 mm 0.25 in6.4 mm
07:17 AM 55.0°F12.8°C 54.4°F12.4°C 97% 3.1 mph NE5.0 kmh NE 6.0 mph9.7 kmh 29.09 in985.1 mb 0.00 in0.0 mm 0.00 in0.0 mm 0.25 in6.4 mm
07:18 AM 55.0°F12.8°C 54.4°F12.4°C 97% 4.5 mph E7.2 kmh E 7.6 mph12.2 kmh 29.09 in985.1 mb 0.00 in0.0 mm 0.00 in0.0 mm 0.25 in6.4 mm
07:22 AM 55.0°F12.8°C 54.4°F12.4°C 97% 1.6 mph E2.6 kmh E 3.8 mph6.1 kmh 29.09 in985.1 mb 0.00 in0.0 mm 0.00 in0.0 mm 0.25 in6.4 mm
07:23 AM 55.0°F12.8°C 54.4°F12.4°C 97% 2.2 mph NE3.5 kmh NE 4.5 mph7.2 kmh 29.09 in985.1 mb 0.00 in0.0 mm 0.00 in0.0 mm 0.25 in6.4 mm
07:28 AM 55.0°F12.8°C 54.4°F12.4°C 97% 4.5 mph SE7.2 kmh SE 10.7 mph17.2 kmh 29.09 in985.1 mb 0.00 in0.0 mm 0.00 in0.0 mm 0.25 in6.4 mm
07:33 AM 55.0°F12.8°C 54.4°F12.4°C 97% 2.2 mph SE3.5 kmh SE 3.8 mph6.1 kmh 29.09 in985.1 mb 0.00 in0.0 mm 0.00 in0.0 mm 0.25 in6.4 mm
07:37 AM 55.0°F12.8°C 54.4°F12.4°C 97% 3.1 mph NE5.0 kmh NE 4.5 mph7.2 kmh 29.09 in985.1 mb 0.00 in0.0 mm 0.00 in0.0 mm 0.25 in6.4 mm
07:38 AM 55.0°F12.8°C 54.4°F12.4°C 97% 3.1 mph S5.0 kmh S 5.4 mph8.7 kmh 29.09 in985.1 mb 0.00 in0.0 mm 0.00 in0.0 mm 0.25 in6.4 mm
07:42 AM 55.2°F12.9°C 54.6°F12.6°C 97% 4.5 mph E7.2 kmh E 6.0 mph9.7 kmh 29.10 in985.4 mb 0.00 in0.0 mm 0.00 in0.0 mm 0.25 in6.4 mm
07:43 AM 55.2°F12.9°C 54.6°F12.6°C 97% 3.8 mph SW6.1 kmh SW 5.4 mph8.7 kmh 29.09 in985.1 mb 0.00 in0.0 mm 0.00 in0.0 mm 0.25 in6.4 mm
07:48 AM 55.2°F12.9°C 54.6°F12.6°C 97% 1.6 mph NE2.6 kmh NE 3.1 mph5.0 kmh 29.09 in985.1 mb 0.00 in0.0 mm 0.00 in0.0 mm 0.25 in6.4 mm
07:53 AM 55.2°F12.9°C 54.6°F12.6°C 97% 4.5 mph SE7.2 kmh SE 6.0 mph9.7 kmh 29.09 in985.1 mb 0.00 in0.0 mm 0.00 in0.0 mm 0.25 in6.4 mm
07:57 AM 55.2°F12.9°C 54.6°F12.6°C 97% 4.5 mph S7.2 kmh S 6.0 mph9.7 kmh 29.09 in985.1 mb 0.00 in0.0 mm 0.00 in0.0 mm 0.25 in6.4 mm
07:58 AM 55.2°F12.9°C 54.6°F12.6°C 97% 5.4 mph E8.7 kmh E 7.6 mph12.2 kmh 29.09 in985.1 mb 0.00 in0.0 mm 0.00 in0.0 mm 0.25 in6.4 mm
08:02 AM 55.2°F12.9°C 54.6°F12.6°C 97% 3.8 mph SE6.1 kmh SE 6.0 mph9.7 kmh 29.09 in985.1 mb 0.00 in0.0 mm 0.00 in0.0 mm 0.25 in6.4 mm
08:03 AM 55.2°F12.9°C 54.6°F12.6°C 97% 5.4 mph 8.7 kmh 9.2 mph14.8 kmh 29.09 in985.1 mb 0.00 in0.0 mm 0.00 in0.0 mm 0.25 in6.4 mm
08:08 AM 55.4°F13.0°C 54.8°F12.7°C 97% 0.7 mph S1.1 kmh S 2.2 mph3.5 kmh 29.09 in985.1 mb 0.00 in0.0 mm 0.00 in0.0 mm 0.25 in6.4 mm
08:13 AM 55.4°F13.0°C 54.5°F12.5°C 96% 3.8 mph E6.1 kmh E 6.9 mph11.1 kmh 29.09 in985.1 mb 0.00 in0.0 mm 0.00 in0.0 mm 0.25 in6.4 mm
08:17 AM 55.2°F12.9°C 54.6°F12.6°C 97% 3.1 mph E5.0 kmh E 4.5 mph7.2 kmh 29.09 in985.1 mb 0.00 in0.0 mm 0.00 in0.0 mm 0.25 in6.4 mm
08:18 AM 55.2°F12.9°C 54.6°F12.6°C 97% 1.6 mph NE2.6 kmh NE 4.5 mph7.2 kmh 29.08 in984.8 mb 0.00 in0.0 mm 0.00 in0.0 mm 0.25 in6.4 mm
08:22 AM 55.2°F12.9°C 54.6°F12.6°C 97% 4.5 mph E7.2 kmh E 9.2 mph14.8 kmh 29.09 in985.1 mb 0.00 in0.0 mm 0.00 in0.0 mm 0.25 in6.4 mm
08:23 AM 55.2°F12.9°C 54.6°F12.6°C 97% 3.1 mph NE5.0 kmh NE 5.4 mph8.7 kmh 29.10 in985.4 mb 0.00 in0.0 mm 0.00 in0.0 mm 0.25 in6.4 mm
08:28 AM 55.2°F12.9°C 54.6°F12.6°C 97% 3.8 mph 6.1 kmh 6.9 mph11.1 kmh 29.09 in985.1 mb 0.00 in0.0 mm 0.00 in0.0 mm 0.25 in6.4 mm
08:33 AM 55.4°F13.0°C 54.5°F12.5°C 96% 1.6 mph 2.6 kmh 3.8 mph6.1 kmh 29.09 in985.1 mb 0.00 in0.0 mm 0.00 in0.0 mm 0.25 in6.4 mm
08:37 AM 55.4°F13.0°C 54.5°F12.5°C 96% 2.2 mph SW3.5 kmh SW 4.5 mph7.2 kmh 29.09 in985.1 mb 0.00 in0.0 mm 0.00 in0.0 mm 0.25 in6.4 mm
08:38 AM 55.4°F13.0°C 54.5°F12.5°C 96% 1.6 mph S2.6 kmh S 3.1 mph5.0 kmh 29.10 in985.4 mb 0.00 in0.0 mm 0.00 in0.0 mm 0.25 in6.4 mm
08:42 AM 55.4°F13.0°C 54.5°F12.5°C 96% 3.1 mph NE5.0 kmh NE 6.0 mph9.7 kmh 29.10 in985.4 mb 0.00 in0.0 mm 0.00 in0.0 mm 0.25 in6.4 mm
08:43 AM 55.6°F13.1°C 54.7°F12.6°C 96% 4.5 mph NW7.2 kmh NW 8.3 mph13.4 kmh 29.09 in985.1 mb 0.00 in0.0 mm 0.00 in0.0 mm 0.25 in6.4 mm
08:48 AM 55.6°F13.1°C 54.7°F12.6°C 96% 2.2 mph NE3.5 kmh NE 5.4 mph8.7 kmh 29.09 in985.1 mb 0.00 in0.0 mm 0.00 in0.0 mm 0.25 in6.4 mm
08:53 AM 55.6°F13.1°C 54.7°F12.6°C 96% 2.2 mph NE3.5 kmh NE 7.6 mph12.2 kmh 29.10 in985.4 mb 0.00 in0.0 mm 0.00 in0.0 mm 0.25 in6.4 mm
08:57 AM 55.6°F13.1°C 54.7°F12.6°C 96% 1.6 mph S2.6 kmh S 6.9 mph11.1 kmh 29.09 in985.1 mb 0.00 in0.0 mm 0.00 in0.0 mm 0.25 in6.4 mm
08:58 AM 55.6°F13.1°C 54.7°F12.6°C 96% 2.2 mph SW3.5 kmh SW 5.4 mph8.7 kmh 29.09 in985.1 mb 0.00 in0.0 mm 0.00 in0.0 mm 0.25 in6.4 mm
09:02 AM 55.6°F13.1°C 54.7°F12.6°C 96% 1.6 mph SE2.6 kmh SE 3.1 mph5.0 kmh 29.09 in985.1 mb 0.00 in0.0 mm 0.00 in0.0 mm 0.25 in6.4 mm
09:03 AM 55.6°F13.1°C 54.7°F12.6°C 96% 2.2 mph E3.5 kmh E 3.8 mph6.1 kmh 29.09 in985.1 mb 0.00 in0.0 mm 0.00 in0.0 mm 0.25 in6.4 mm
09:08 AM 55.6°F13.1°C 54.7°F12.6°C 96% 3.1 mph SE5.0 kmh SE 7.6 mph12.2 kmh 29.10 in985.4 mb 0.00 in0.0 mm 0.00 in0.0 mm 0.25 in6.4 mm
09:13 AM 55.6°F13.1°C 54.7°F12.6°C 96% 2.2 mph E3.5 kmh E 4.5 mph7.2 kmh 29.10 in985.4 mb 0.00 in0.0 mm 0.00 in0.0 mm 0.25 in6.4 mm
09:17 AM 55.8°F13.2°C 54.9°F12.7°C 96% 2.2 mph SE3.5 kmh SE 3.8 mph6.1 kmh 29.09 in985.1 mb 0.00 in0.0 mm 0.00 in0.0 mm 0.25 in6.4 mm
09:18 AM 55.6°F13.1°C 54.7°F12.6°C 96% 3.8 mph NE6.1 kmh NE 6.0 mph9.7 kmh 29.09 in985.1 mb 0.00 in0.0 mm 0.00 in0.0 mm 0.25 in6.4 mm
09:22 AM 55.8°F13.2°C 54.9°F12.7°C 96% 2.2 mph SE3.5 kmh SE 6.0 mph9.7 kmh 29.09 in985.1 mb 0.00 in0.0 mm 0.00 in0.0 mm 0.25 in6.4 mm
09:23 AM 55.8°F13.2°C 54.9°F12.7°C 96% 1.6 mph SE2.6 kmh SE 2.2 mph3.5 kmh 29.09 in985.1 mb 0.00 in0.0 mm 0.00 in0.0 mm 0.25 in6.4 mm
09:28 AM 55.8°F13.2°C 54.9°F12.7°C 96% 3.1 mph S5.0 kmh S 6.0 mph9.7 kmh 29.09 in985.1 mb 0.00 in0.0 mm 0.00 in0.0 mm 0.25 in6.4 mm
09:33 AM 55.8°F13.2°C 54.9°F12.7°C 96% 1.6 mph E2.6 kmh E 3.1 mph5.0 kmh 29.09 in985.1 mb 0.00 in0.0 mm 0.00 in0.0 mm 0.25 in6.4 mm
09:37 AM 55.9°F13.3°C 55.1°F12.8°C 96% Calm Calm 0.7 mph1.1 kmh 29.09 in985.1 mb 0.00 in0.0 mm 0.00 in0.0 mm 0.25 in6.4 mm
09:38 AM 55.8°F13.2°C 54.9°F12.7°C 96% 1.6 mph SSW2.6 kmh SSW 3.8 mph6.1 kmh 29.09 in985.1 mb 0.00 in0.0 mm 0.00 in0.0 mm 0.25 in6.4 mm
09:42 AM 55.9°F13.3°C 55.1°F12.8°C 96% 2.2 mph NE3.5 kmh NE 5.4 mph8.7 kmh 29.09 in985.1 mb 0.00 in0.0 mm 0.00 in0.0 mm 0.25 in6.4 mm
09:43 AM 55.9°F13.3°C 55.1°F12.8°C 96% 2.2 mph E3.5 kmh E 3.1 mph5.0 kmh 29.09 in985.1 mb 0.00 in0.0 mm 0.00 in0.0 mm 0.25 in6.4 mm
09:48 AM 55.9°F13.3°C 54.9°F12.7°C 95% 2.2 mph NE3.5 kmh NE 8.3 mph13.4 kmh 29.09 in985.1 mb 0.00 in0.0 mm 0.00 in0.0 mm 0.25 in6.4 mm
09:53 AM 55.9°F13.3°C 54.9°F12.7°C 95% 2.2 mph S3.5 kmh S 3.1 mph5.0 kmh 29.09 in985.1 mb 0.00 in0.0 mm 0.00 in0.0 mm 0.25 in6.4 mm
09:57 AM 55.9°F13.3°C 54.9°F12.7°C 95% 1.6 mph S2.6 kmh S 3.8 mph6.1 kmh 29.09 in985.1 mb 0.00 in0.0 mm 0.00 in0.0 mm 0.25 in6.4 mm
09:58 AM 55.9°F13.3°C 54.9°F12.7°C 95% 1.6 mph NE2.6 kmh NE 4.5 mph7.2 kmh 29.10 in985.4 mb 0.00 in0.0 mm 0.00 in0.0 mm 0.25 in6.4 mm
10:02 AM 56.1°F13.4°C 55.0°F12.8°C 95% 1.6 mph E2.6 kmh E 3.1 mph5.0 kmh 29.10 in985.4 mb 0.00 in0.0 mm 0.00 in0.0 mm 0.25 in6.4 mm
10:03 AM 56.1°F13.4°C 55.0°F12.8°C 95% 1.6 mph NW2.6 kmh NW 4.5 mph7.2 kmh 29.10 in985.4 mb 0.00 in0.0 mm 0.00 in0.0 mm 0.25 in6.4 mm
10:08 AM 56.1°F13.4°C 55.0°F12.8°C 95% 0.7 mph NE1.1 kmh NE 2.2 mph3.5 kmh 29.10 in985.4 mb 0.00 in0.0 mm 0.00 in0.0 mm 0.25 in6.4 mm
10:13 AM 56.5°F13.6°C 55.4°F13.0°C 95% 4.5 mph SE7.2 kmh SE 6.9 mph11.1 kmh 29.10 in985.4 mb 0.00 in0.0 mm 0.00 in0.0 mm 0.25 in6.4 mm
10:17 AM 56.5°F13.6°C 55.4°F13.0°C 95% 2.2 mph 3.5 kmh 5.4 mph8.7 kmh 29.09 in985.1 mb 0.00 in0.0 mm 0.00 in0.0 mm 0.25 in6.4 mm
10:18 AM 56.5°F13.6°C 55.4°F13.0°C 95% 0.7 mph E1.1 kmh E 4.5 mph7.2 kmh 29.09 in985.1 mb 0.00 in0.0 mm 0.00 in0.0 mm 0.25 in6.4 mm
10:22 AM 56.7°F13.7°C 55.6°F13.1°C 95% 3.1 mph E5.0 kmh E 7.6 mph12.2 kmh 29.10 in985.4 mb 0.00 in0.0 mm 0.00 in0.0 mm 0.25 in6.4 mm
10:23 AM 56.8°F13.8°C 55.8°F13.2°C 95% 3.1 mph S5.0 kmh S 6.0 mph9.7 kmh 29.10 in985.4 mb 0.00 in0.0 mm 0.00 in0.0 mm 0.25 in6.4 mm
10:28 AM 57.2°F14.0°C 55.9°F13.3°C 94% 6.0 mph S9.7 kmh S 8.3 mph13.4 kmh 29.10 in985.4 mb 0.00 in0.0 mm 0.00 in0.0 mm 0.25 in6.4 mm
10:33 AM 57.4°F14.1°C 55.8°F13.2°C 93% 2.2 mph SE3.5 kmh SE 3.8 mph6.1 kmh 29.10 in985.4 mb 0.00 in0.0 mm 0.00 in0.0 mm 0.25 in6.4 mm
10:37 AM 57.4°F14.1°C 55.8°F13.2°C 93% 3.8 mph NE6.1 kmh NE 6.0 mph9.7 kmh 29.09 in985.1 mb 0.00 in0.0 mm 0.00 in0.0 mm 0.25 in6.4 mm
10:38 AM 57.4°F14.1°C 55.8°F13.2°C 93% 3.1 mph NW5.0 kmh NW 6.9 mph11.1 kmh 29.09 in985.1 mb 0.00 in0.0 mm 0.00 in0.0 mm 0.25 in6.4 mm
10:42 AM 57.6°F14.2°C 56.0°F13.3°C 93% 2.2 mph NE3.5 kmh NE 3.8 mph6.1 kmh 29.09 in985.1 mb 0.00 in0.0 mm 0.00 in0.0 mm 0.25 in6.4 mm
10:43 AM 57.6°F14.2°C 56.0°F13.3°C 93% 3.8 mph E6.1 kmh E 5.4 mph8.7 kmh 29.10 in985.4 mb 0.00 in0.0 mm 0.00 in0.0 mm 0.25 in6.4 mm
10:48 AM 57.6°F14.2°C 55.8°F13.2°C 92% 2.2 mph E3.5 kmh E 3.8 mph6.1 kmh 29.10 in985.4 mb 0.00 in0.0 mm 0.00 in0.0 mm 0.25 in6.4 mm
10:53 AM 57.4°F14.1°C 55.6°F13.1°C 92% 3.1 mph S5.0 kmh S 5.4 mph8.7 kmh 29.10 in985.4 mb 0.00 in0.0 mm 0.00 in0.0 mm 0.25 in6.4 mm
10:57 AM 57.2°F14.0°C 55.2°F12.9°C 91% 1.6 mph E2.6 kmh E 4.5 mph7.2 kmh 29.10 in985.4 mb 0.00 in0.0 mm 0.00 in0.0 mm 0.25 in6.4 mm
10:58 AM 57.2°F14.0°C 55.2°F12.9°C 91% 0.7 mph SE1.1 kmh SE 3.1 mph5.0 kmh 29.09 in985.1 mb 0.00 in0.0 mm 0.00 in0.0 mm 0.25 in6.4 mm
11:02 AM 57.4°F14.1°C 55.4°F13.0°C 91% 3.1 mph NE5.0 kmh NE 5.4 mph8.7 kmh 29.10 in985.4 mb 0.00 in0.0 mm 0.00 in0.0 mm 0.25 in6.4 mm
11:03 AM 57.4°F14.1°C 55.4°F13.0°C 91% 3.1 mph NE5.0 kmh NE 5.4 mph8.7 kmh 29.10 in985.4 mb 0.00 in0.0 mm 0.00 in0.0 mm 0.25 in6.4 mm
11:08 AM 57.6°F14.2°C 55.6°F13.1°C 91% 2.2 mph S3.5 kmh S 4.5 mph7.2 kmh 29.10 in985.4 mb 0.00 in0.0 mm 0.00 in0.0 mm 0.25 in6.4 mm
11:13 AM 57.7°F14.3°C 55.7°F13.2°C 91% 2.2 mph SE3.5 kmh SE 3.8 mph6.1 kmh 29.10 in985.4 mb 0.00 in0.0 mm 0.00 in0.0 mm 0.25 in6.4 mm
11:17 AM 57.9°F14.4°C 55.9°F13.3°C 91% 1.6 mph S2.6 kmh S 6.0 mph9.7 kmh 29.10 in985.4 mb 0.00 in0.0 mm 0.00 in0.0 mm 0.25 in6.4 mm
11:18 AM 57.9°F14.4°C 55.9°F13.3°C 91% 1.6 mph SE2.6 kmh SE 2.2 mph3.5 kmh 29.10 in985.4 mb 0.00 in0.0 mm 0.00 in0.0 mm 0.25 in6.4 mm
11:22 AM 58.1°F14.5°C 55.9°F13.3°C 90% 2.2 mph 3.5 kmh 5.4 mph8.7 kmh 29.10 in985.4 mb 0.00 in0.0 mm 0.00 in0.0 mm 0.25 in6.4 mm
11:23 AM 58.1°F14.5°C 55.9°F13.3°C 90% 3.1 mph 5.0 kmh 6.9 mph11.1 kmh 29.10 in985.4 mb 0.00 in0.0 mm 0.00 in0.0 mm 0.25 in6.4 mm
11:28 AM 57.9°F14.4°C 55.5°F13.1°C 89% 2.2 mph S3.5 kmh S 6.9 mph11.1 kmh 29.10 in985.4 mb 0.00 in0.0 mm 0.00 in0.0 mm 0.25 in6.4 mm
11:33 AM 57.7°F14.3°C 55.3°F12.9°C 89% 2.2 mph SW3.5 kmh SW 3.8 mph6.1 kmh 29.10 in985.4 mb 0.00 in0.0 mm 0.00 in0.0 mm 0.25 in6.4 mm
11:37 AM 57.7°F14.3°C 55.3°F12.9°C 89% 0.7 mph SW1.1 kmh SW 1.6 mph2.6 kmh 29.10 in985.4 mb 0.00 in0.0 mm 0.00 in0.0 mm 0.25 in6.4 mm
11:38 AM 57.7°F14.3°C 55.3°F12.9°C 89% 3.1 mph S5.0 kmh S 3.8 mph6.1 kmh 29.10 in985.4 mb 0.00 in0.0 mm 0.00 in0.0 mm 0.25 in6.4 mm
11:42 AM 57.7°F14.3°C 55.3°F12.9°C 89% Calm Calm 1.6 mph2.6 kmh 29.10 in985.4 mb 0.00 in0.0 mm 0.00 in0.0 mm 0.25 in6.4 mm
11:43 AM 57.7°F14.3°C 55.3°F12.9°C 89% 4.5 mph E7.2 kmh E 7.6 mph12.2 kmh 29.10 in985.4 mb 0.00 in0.0 mm 0.00 in0.0 mm 0.25 in6.4 mm
11:48 AM 57.7°F14.3°C 55.0°F12.8°C 88% 1.6 mph E2.6 kmh E 2.2 mph3.5 kmh 29.11 in985.8 mb 0.00 in0.0 mm 0.00 in0.0 mm 0.25 in6.4 mm
11:53 AM 57.9°F14.4°C 55.0°F12.8°C 87% 2.2 mph E3.5 kmh E 6.0 mph9.7 kmh 29.11 in985.8 mb 0.00 in0.0 mm 0.00 in0.0 mm 0.25 in6.4 mm
11:57 AM 58.3°F14.6°C 55.3°F12.9°C 87% 1.6 mph SE2.6 kmh SE 3.1 mph5.0 kmh 29.10 in985.4 mb 0.00 in0.0 mm 0.00 in0.0 mm 0.25 in6.4 mm
11:58 AM 58.1°F14.5°C 55.2°F12.9°C 87% 1.6 mph SW2.6 kmh SW 3.8 mph6.1 kmh 29.11 in985.8 mb 0.00 in0.0 mm 0.00 in0.0 mm 0.25 in6.4 mm
12:02 PM 58.3°F14.6°C 55.3°F12.9°C 87% 2.2 mph SW3.5 kmh SW 4.5 mph7.2 kmh 29.10 in985.4 mb 0.00 in0.0 mm 0.00 in0.0 mm 0.25 in6.4 mm
12:03 PM 58.3°F14.6°C 55.1°F12.8°C 86% 4.5 mph SE7.2 kmh SE 6.9 mph11.1 kmh 29.10 in985.4 mb 0.00 in0.0 mm 0.00 in0.0 mm 0.25 in6.4 mm
12:08 PM 58.3°F14.6°C 55.1°F12.8°C 86% 1.6 mph SE2.6 kmh SE 3.8 mph6.1 kmh 29.11 in985.8 mb 0.00 in0.0 mm 0.00 in0.0 mm 0.25 in6.4 mm
12:13 PM 58.5°F14.7°C 55.3°F12.9°C 86% 1.6 mph SW2.6 kmh SW 3.1 mph5.0 kmh 29.10 in985.4 mb 0.00 in0.0 mm 0.00 in0.0 mm 0.25 in6.4 mm
12:17 PM 59.0°F15.0°C 55.6°F13.1°C 85% 1.6 mph E2.6 kmh E 3.1 mph5.0 kmh 29.10 in985.4 mb 0.00 in0.0 mm 0.00 in0.0 mm 0.25 in6.4 mm
12:18 PM 58.8°F14.9°C 55.6°F13.1°C 86% 2.2 mph S3.5 kmh S 6.9 mph11.1 kmh 29.10 in985.4 mb 0.00 in0.0 mm 0.00 in0.0 mm 0.25 in6.4 mm
12:22 PM 59.2°F15.1°C 55.5°F13.1°C 84% 1.6 mph SW2.6 kmh SW 3.1 mph5.0 kmh 29.10 in985.4 mb 0.00 in0.0 mm 0.00 in0.0 mm 0.25 in6.4 mm
12:23 PM 59.2°F15.1°C 55.5°F13.1°C 84% 4.5 mph S7.2 kmh S 6.9 mph11.1 kmh 29.10 in985.4 mb 0.00 in0.0 mm 0.00 in0.0 mm 0.25 in6.4 mm
12:28 PM 59.0°F15.0°C 55.1°F12.8°C 83% 3.8 mph SW6.1 kmh SW 6.9 mph11.1 kmh 29.10 in985.4 mb 0.00 in0.0 mm 0.00 in0.0 mm 0.25 in6.4 mm
12:33 PM 59.0°F15.0°C 55.1°F12.8°C 83% 1.6 mph S2.6 kmh S 4.5 mph7.2 kmh 29.10 in985.4 mb 0.00 in0.0 mm 0.00 in0.0 mm 0.25 in6.4 mm
12:37 PM 59.0°F15.0°C 55.1°F12.8°C 83% 1.6 mph NE2.6 kmh NE 5.4 mph8.7 kmh 29.10 in985.4 mb 0.00 in0.0 mm 0.00 in0.0 mm 0.25 in6.4 mm
12:38 PM 58.8°F14.9°C 55.1°F12.8°C 84% 2.2 mph SW3.5 kmh SW 4.5 mph7.2 kmh 29.10 in985.4 mb 0.00 in0.0 mm 0.00 in0.0 mm 0.25 in6.4 mm
12:42 PM 59.2°F15.1°C 55.2°F12.9°C 83% 3.1 mph E5.0 kmh E 3.8 mph6.1 kmh 29.10 in985.4 mb 0.00 in0.0 mm 0.00 in0.0 mm 0.25 in6.4 mm
12:43 PM 59.2°F15.1°C 55.2°F12.9°C 83% 0.7 mph S1.1 kmh S 3.1 mph5.0 kmh 29.10 in985.4 mb 0.00 in0.0 mm 0.00 in0.0 mm 0.25 in6.4 mm
12:48 PM 59.5°F15.3°C 55.3°F12.9°C 82% 2.2 mph SW3.5 kmh SW 3.8 mph6.1 kmh 29.10 in985.4 mb 0.00 in0.0 mm 0.00 in0.0 mm 0.25 in6.4 mm
12:53 PM 60.1°F15.6°C 55.9°F13.3°C 82% Calm Calm 1.6 mph2.6 kmh 29.10 in985.4 mb 0.00 in0.0 mm 0.00 in0.0 mm 0.25 in6.4 mm
12:57 PM 59.9°F15.5°C 55.4°F13.0°C 81% 0.7 mph E1.1 kmh E 2.2 mph3.5 kmh 29.10 in985.4 mb 0.00 in0.0 mm 0.00 in0.0 mm 0.25 in6.4 mm
12:58 PM 60.3°F15.7°C 55.8°F13.2°C 81% 3.8 mph E6.1 kmh E 6.0 mph9.7 kmh 29.10 in985.4 mb 0.00 in0.0 mm 0.00 in0.0 mm 0.25 in6.4 mm
01:02 PM 59.7°F15.4°C 55.2°F12.9°C 81% 3.1 mph S5.0 kmh S 6.0 mph9.7 kmh 29.10 in985.4 mb 0.00 in0.0 mm 0.00 in0.0 mm 0.25 in6.4 mm
01:03 PM 59.5°F15.3°C 55.1°F12.8°C 81% 3.1 mph 5.0 kmh 4.5 mph7.2 kmh 29.11 in985.8 mb 0.00 in0.0 mm 0.00 in0.0 mm 0.25 in6.4 mm
01:08 PM 59.2°F15.1°C 54.7°F12.6°C 81% 2.2 mph S3.5 kmh S 7.6 mph12.2 kmh 29.11 in985.8 mb 0.00 in0.0 mm 0.00 in0.0 mm 0.25 in6.4 mm
01:13 PM 59.2°F15.1°C 54.7°F12.6°C 81% 3.1 mph 5.0 kmh 4.5 mph7.2 kmh 29.11 in985.8 mb 0.01 in0.3 mm 0.14 in3.6 mm 0.26 in6.6 mm
01:17 PM 59.5°F15.3°C 55.3°F12.9°C 82% 5.4 mph SW8.7 kmh SW 7.6 mph12.2 kmh 29.11 in985.8 mb 0.01 in0.3 mm 0.00 in0.0 mm 0.26 in6.6 mm
01:18 PM 59.4°F15.2°C 55.2°F12.9°C 82% 1.6 mph E2.6 kmh E 3.1 mph5.0 kmh 29.11 in985.8 mb 0.01 in0.3 mm 0.00 in0.0 mm 0.26 in6.6 mm
01:22 PM 59.7°F15.4°C 55.2°F12.9°C 81% 2.2 mph SW3.5 kmh SW 3.8 mph6.1 kmh 29.11 in985.8 mb 0.01 in0.3 mm 0.00 in0.0 mm 0.26 in6.6 mm
01:23 PM 59.9°F15.5°C 55.4°F13.0°C 81% 3.1 mph SSW5.0 kmh SSW 5.4 mph8.7 kmh 29.11 in985.8 mb 0.01 in0.3 mm 0.00 in0.0 mm 0.26 in6.6 mm
01:28 PM 60.1°F15.6°C 55.6°F13.1°C 81% 3.8 mph SW6.1 kmh SW 5.4 mph8.7 kmh 29.11 in985.8 mb 0.01 in0.3 mm 0.00 in0.0 mm 0.26 in6.6 mm
01:33 PM 60.3°F15.7°C 55.8°F13.2°C 81% 3.1 mph SE5.0 kmh SE 6.9 mph11.1 kmh 29.11 in985.8 mb 0.01 in0.3 mm 0.00 in0.0 mm 0.26 in6.6 mm
01:37 PM 60.1°F15.6°C 55.3°F12.9°C 80% 3.8 mph SE6.1 kmh SE 6.0 mph9.7 kmh 29.12 in986.1 mb 0.01 in0.3 mm 0.00 in0.0 mm 0.26 in6.6 mm
01:38 PM 60.3°F15.7°C 55.5°F13.1°C 80% 3.1 mph SW5.0 kmh SW 6.0 mph9.7 kmh 29.11 in985.8 mb 0.01 in0.3 mm 0.00 in0.0 mm 0.26 in6.6 mm
01:42 PM 59.9°F15.5°C 55.2°F12.9°C 80% 3.1 mph SE5.0 kmh SE 6.0 mph9.7 kmh 29.11 in985.8 mb 0.01 in0.3 mm 0.00 in0.0 mm 0.26 in6.6 mm
01:43 PM 59.9°F15.5°C 55.2°F12.9°C 80% 1.6 mph E2.6 kmh E 3.1 mph5.0 kmh 29.11 in985.8 mb 0.01 in0.3 mm 0.00 in0.0 mm 0.26 in6.6 mm
01:48 PM 59.5°F15.3°C 54.8°F12.7°C 80% 5.4 mph 8.7 kmh 10.7 mph17.2 kmh 29.11 in985.8 mb 0.01 in0.3 mm 0.00 in0.0 mm 0.26 in6.6 mm
01:53 PM 59.4°F15.2°C 54.6°F12.6°C 80% 2.2 mph S3.5 kmh S 4.5 mph7.2 kmh 29.11 in985.8 mb 0.01 in0.3 mm 0.00 in0.0 mm 0.26 in6.6 mm
01:57 PM 59.4°F15.2°C 54.9°F12.7°C 81% 3.1 mph S5.0 kmh S 7.6 mph12.2 kmh 29.12 in986.1 mb 0.01 in0.3 mm 0.00 in0.0 mm 0.26 in6.6 mm
01:58 PM 59.2°F15.1°C 54.7°F12.6°C 81% 4.5 mph SW7.2 kmh SW 5.4 mph8.7 kmh 29.12 in986.1 mb 0.01 in0.3 mm 0.00 in0.0 mm 0.26 in6.6 mm
02:02 PM 59.4°F15.2°C 54.9°F12.7°C 81% 4.5 mph SE7.2 kmh SE 9.2 mph14.8 kmh 29.12 in986.1 mb 0.01 in0.3 mm 0.00 in0.0 mm 0.26 in6.6 mm
02:03 PM 59.4°F15.2°C 54.9°F12.7°C 81% 0.7 mph SW1.1 kmh SW 1.6 mph2.6 kmh 29.12 in986.1 mb 0.01 in0.3 mm 0.00 in0.0 mm 0.26 in6.6 mm
02:08 PM 59.2°F15.1°C 54.7°F12.6°C 81% 2.2 mph SE3.5 kmh SE 4.5 mph7.2 kmh 29.11 in985.8 mb 0.01 in0.3 mm 0.00 in0.0 mm 0.26 in6.6 mm
02:13 PM 59.2°F15.1°C 54.7°F12.6°C 81% 3.8 mph S6.1 kmh S 6.0 mph9.7 kmh 29.12 in986.1 mb 0.00 in0.0 mm 0.00 in0.0 mm 0.26 in6.6 mm
02:17 PM 59.0°F15.0°C 54.5°F12.5°C 81% 3.1 mph W5.0 kmh W 3.8 mph6.1 kmh 29.11 in985.8 mb 0.00 in0.0 mm 0.00 in0.0 mm 0.26 in6.6 mm
02:18 PM 59.0°F15.0°C 54.5°F12.5°C 81% 4.5 mph S7.2 kmh S 6.0 mph9.7 kmh 29.12 in986.1 mb 0.00 in0.0 mm 0.00 in0.0 mm 0.26 in6.6 mm
02:22 PM 58.8°F14.9°C 54.9°F12.7°C 83% 2.2 mph SE3.5 kmh SE 4.5 mph7.2 kmh 29.11 in985.8 mb 0.00 in0.0 mm 0.00 in0.0 mm 0.26 in6.6 mm
02:23 PM 58.8°F14.9°C 54.9°F12.7°C 83% 3.1 mph S5.0 kmh S 5.4 mph8.7 kmh 29.12 in986.1 mb 0.00 in0.0 mm 0.00 in0.0 mm 0.26 in6.6 mm
02:28 PM 58.8°F14.9°C 54.9°F12.7°C 83% 3.8 mph SE6.1 kmh SE 6.0 mph9.7 kmh 29.12 in986.1 mb 0.00 in0.0 mm 0.00 in0.0 mm 0.26 in6.6 mm
02:33 PM 58.6°F14.8°C 54.7°F12.6°C 83% 4.5 mph S7.2 kmh S 7.6 mph12.2 kmh 29.12 in986.1 mb 0.00 in0.0 mm 0.00 in0.0 mm 0.26 in6.6 mm
02:37 PM 58.6°F14.8°C 54.7°F12.6°C 83% 5.4 mph S8.7 kmh S 13.0 mph20.9 kmh 29.12 in986.1 mb 0.00 in0.0 mm 0.00 in0.0 mm 0.26 in6.6 mm
02:38 PM 58.6°F14.8°C 54.7°F12.6°C 83% 5.4 mph SW8.7 kmh SW 6.9 mph11.1 kmh 29.12 in986.1 mb 0.00 in0.0 mm 0.00 in0.0 mm 0.26 in6.6 mm
02:42 PM 59.0°F15.0°C 54.8°F12.7°C 82% 6.9 mph S11.1 kmh S 10.7 mph17.2 kmh 29.13 in986.5 mb 0.00 in0.0 mm 0.00 in0.0 mm 0.26 in6.6 mm
02:43 PM 59.0°F15.0°C 54.8°F12.7°C 82% 4.5 mph S7.2 kmh S 6.9 mph11.1 kmh 29.12 in986.1 mb 0.00 in0.0 mm 0.00 in0.0 mm 0.26 in6.6 mm
02:48 PM 59.0°F15.0°C 54.8°F12.7°C 82% 3.8 mph NE6.1 kmh NE 7.6 mph12.2 kmh 29.12 in986.1 mb 0.00 in0.0 mm 0.00 in0.0 mm 0.26 in6.6 mm
02:53 PM 58.8°F14.9°C 54.9°F12.7°C 83% 5.4 mph NNW8.7 kmh NNW 13.0 mph20.9 kmh 29.12 in986.1 mb 0.00 in0.0 mm 0.00 in0.0 mm 0.26 in6.6 mm
02:57 PM 58.5°F14.7°C 54.5°F12.5°C 83% 3.1 mph SW5.0 kmh SW 5.4 mph8.7 kmh 29.12 in986.1 mb 0.00 in0.0 mm 0.00 in0.0 mm 0.26 in6.6 mm
02:58 PM 58.6°F14.8°C 54.7°F12.6°C 83% 3.8 mph S6.1 kmh S 7.6 mph12.2 kmh 29.12 in986.1 mb 0.00 in0.0 mm 0.00 in0.0 mm 0.26 in6.6 mm
03:02 PM 58.5°F14.7°C 54.5°F12.5°C 83% 4.5 mph S7.2 kmh S 6.0 mph9.7 kmh 29.11 in985.8 mb 0.00 in0.0 mm 0.00 in0.0 mm 0.26 in6.6 mm
03:03 PM 58.5°F14.7°C 54.5°F12.5°C 83% 2.2 mph S3.5 kmh S 3.8 mph6.1 kmh 29.12 in986.1 mb 0.00 in0.0 mm 0.00 in0.0 mm 0.26 in6.6 mm
03:08 PM 58.3°F14.6°C 54.4°F12.4°C 83% 3.8 mph S6.1 kmh S 6.0 mph9.7 kmh 29.12 in986.1 mb 0.00 in0.0 mm 0.00 in0.0 mm 0.26 in6.6 mm
03:13 PM 58.1°F14.5°C 54.4°F12.4°C 84% 4.5 mph NE7.2 kmh NE 8.3 mph13.4 kmh 29.13 in986.5 mb 0.00 in0.0 mm 0.00 in0.0 mm 0.26 in6.6 mm
03:17 PM 58.1°F14.5°C 54.4°F12.4°C 84% 2.2 mph SE3.5 kmh SE 4.5 mph7.2 kmh 29.13 in986.5 mb 0.00 in0.0 mm 0.00 in0.0 mm 0.26 in6.6 mm
03:18 PM 58.1°F14.5°C 54.4°F12.4°C 84% 3.1 mph S5.0 kmh S 9.8 mph15.8 kmh 29.13 in986.5 mb 0.00 in0.0 mm 0.00 in0.0 mm 0.26 in6.6 mm
03:22 PM 58.3°F14.6°C 54.6°F12.6°C 84% 2.2 mph NE3.5 kmh NE 5.4 mph8.7 kmh 29.13 in986.5 mb 0.00 in0.0 mm 0.00 in0.0 mm 0.26 in6.6 mm
03:23 PM 58.3°F14.6°C 54.6°F12.6°C 84% 6.0 mph NE9.7 kmh NE 7.6 mph12.2 kmh 29.13 in986.5 mb 0.00 in0.0 mm 0.00 in0.0 mm 0.26 in6.6 mm
03:28 PM 58.3°F14.6°C 54.4°F12.4°C 83% 5.4 mph SW8.7 kmh SW 7.6 mph12.2 kmh 29.13 in986.5 mb 0.00 in0.0 mm 0.00 in0.0 mm 0.26 in6.6 mm
03:33 PM 58.3°F14.6°C 54.4°F12.4°C 83% 3.8 mph SW6.1 kmh SW 6.0 mph9.7 kmh 29.13 in986.5 mb 0.00 in0.0 mm 0.00 in0.0 mm 0.26 in6.6 mm
03:37 PM 58.3°F14.6°C 54.4°F12.4°C 83% 6.0 mph SE9.7 kmh SE 11.4 mph18.3 kmh 29.13 in986.5 mb 0.00 in0.0 mm 0.00 in0.0 mm 0.26 in6.6 mm
03:38 PM 58.3°F14.6°C 54.4°F12.4°C 83% 4.5 mph SW7.2 kmh SW 8.3 mph13.4 kmh 29.13 in986.5 mb 0.00 in0.0 mm 0.00 in0.0 mm 0.26 in6.6 mm
03:42 PM 58.3°F14.6°C 54.4°F12.4°C 83% 3.1 mph S5.0 kmh S 4.5 mph7.2 kmh 29.13 in986.5 mb 0.00 in0.0 mm 0.00 in0.0 mm 0.26 in6.6 mm
03:43 PM 58.1°F14.5°C 54.2°F12.3°C 83% 6.0 mph S9.7 kmh S 12.1 mph19.5 kmh 29.13 in986.5 mb 0.00 in0.0 mm 0.00 in0.0 mm 0.26 in6.6 mm
03:48 PM 58.1°F14.5°C 54.2°F12.3°C 83% 6.9 mph SE11.1 kmh SE 11.4 mph18.3 kmh 29.13 in986.5 mb 0.00 in0.0 mm 0.00 in0.0 mm 0.26 in6.6 mm
03:53 PM 57.9°F14.4°C 54.0°F12.2°C 83% 3.1 mph SW5.0 kmh SW 4.5 mph7.2 kmh 29.13 in986.5 mb 0.00 in0.0 mm 0.00 in0.0 mm 0.26 in6.6 mm
03:57 PM 57.6°F14.2°C 53.7°F12.1°C 83% 6.0 mph S9.7 kmh S 8.3 mph13.4 kmh 29.14 in986.8 mb 0.00 in0.0 mm 0.00 in0.0 mm 0.26 in6.6 mm
03:58 PM 57.7°F14.3°C 53.8°F12.1°C 83% 4.5 mph SW7.2 kmh SW 8.3 mph13.4 kmh 29.13 in986.5 mb 0.00 in0.0 mm 0.00 in0.0 mm 0.26 in6.6 mm
04:02 PM 57.4°F14.1°C 53.7°F12.1°C 84% 5.4 mph SW8.7 kmh SW 9.2 mph14.8 kmh 29.14 in986.8 mb 0.00 in0.0 mm 0.00 in0.0 mm 0.26 in6.6 mm
04:03 PM 57.4°F14.1°C 53.7°F12.1°C 84% 3.8 mph SW6.1 kmh SW 6.0 mph9.7 kmh 29.13 in986.5 mb 0.00 in0.0 mm 0.00 in0.0 mm 0.26 in6.6 mm
04:08 PM 57.2°F14.0°C 53.6°F12.0°C 84% 3.1 mph S5.0 kmh S 4.5 mph7.2 kmh 29.13 in986.5 mb 0.00 in0.0 mm 0.00 in0.0 mm 0.26 in6.6 mm
04:13 PM 57.0°F13.9°C 53.9°F12.2°C 86% 3.8 mph S6.1 kmh S 6.0 mph9.7 kmh 29.14 in986.8 mb 0.00 in0.0 mm 0.00 in0.0 mm 0.26 in6.6 mm
04:17 PM 56.8°F13.8°C 53.9°F12.2°C 87% 5.4 mph S8.7 kmh S 7.6 mph12.2 kmh 29.14 in986.8 mb 0.00 in0.0 mm 0.00 in0.0 mm 0.26 in6.6 mm
04:18 PM 56.8°F13.8°C 53.7°F12.1°C 86% 3.1 mph SE5.0 kmh SE 5.4 mph8.7 kmh 29.13 in986.5 mb 0.00 in0.0 mm 0.00 in0.0 mm 0.26 in6.6 mm
04:22 PM 56.7°F13.7°C 53.7°F12.1°C 87% 4.5 mph S7.2 kmh S 7.6 mph12.2 kmh 29.15 in987.1 mb 0.00 in0.0 mm 0.00 in0.0 mm 0.26 in6.6 mm
04:23 PM 56.7°F13.7°C 53.7°F12.1°C 87% 3.1 mph SW5.0 kmh SW 4.5 mph7.2 kmh 29.14 in986.8 mb 0.00 in0.0 mm 0.00 in0.0 mm 0.26 in6.6 mm
04:28 PM 56.7°F13.7°C 53.7°F12.1°C 87% 4.5 mph S7.2 kmh S 9.2 mph14.8 kmh 29.14 in986.8 mb 0.00 in0.0 mm 0.00 in0.0 mm 0.26 in6.6 mm
04:33 PM 56.7°F13.7°C 54.0°F12.2°C 88% 4.5 mph S7.2 kmh S 6.9 mph11.1 kmh 29.16 in987.5 mb 0.00 in0.0 mm 0.00 in0.0 mm 0.26 in6.6 mm
04:37 PM 55.4°F13.0°C 52.5°F11.4°C 87% 6.0 mph SW9.7 kmh SW 9.2 mph14.8 kmh 29.17 in987.8 mb 0.04 in1.0 mm 0.53 in13.5 mm 0.30 in7.6 mm
04:38 PM 56.1°F13.4°C 53.5°F11.9°C 88% 2.2 mph SW3.5 kmh SW 4.5 mph7.2 kmh 29.18 in988.1 mb 0.04 in1.0 mm 0.00 in0.0 mm 0.30 in7.6 mm
04:42 PM 54.0°F12.2°C 50.9°F10.5°C 86% 4.5 mph 7.2 kmh 8.3 mph13.4 kmh 29.18 in988.1 mb 0.04 in1.0 mm 0.00 in0.0 mm 0.30 in7.6 mm
04:43 PM 53.6°F12.0°C 50.5°F10.3°C 86% 6.0 mph S9.7 kmh S 12.1 mph19.5 kmh 29.19 in988.5 mb 0.04 in1.0 mm 0.00 in0.0 mm 0.30 in7.6 mm
04:48 PM 52.9°F11.6°C 50.0°F10.0°C 87% 3.1 mph SW5.0 kmh SW 5.4 mph8.7 kmh 29.19 in988.5 mb 0.05 in1.3 mm 0.14 in3.6 mm 0.31 in7.9 mm
04:53 PM 52.5°F11.4°C 49.9°F9.9°C 88% 3.1 mph NNW5.0 kmh NNW 6.0 mph9.7 kmh 29.19 in988.5 mb 0.05 in1.3 mm 0.00 in0.0 mm 0.30 in7.6 mm
04:57 PM 52.3°F11.3°C 50.0°F10.0°C 89% 3.8 mph SW6.1 kmh SW 9.2 mph14.8 kmh 29.20 in988.8 mb 0.06 in1.5 mm 0.18 in4.6 mm 0.31 in7.9 mm
04:58 PM 52.3°F11.3°C 50.0°F10.0°C 89% 1.6 mph SW2.6 kmh SW 2.2 mph3.5 kmh 29.19 in988.5 mb 0.05 in1.3 mm 0.00 in0.0 mm 0.30 in7.6 mm
05:02 PM 52.2°F11.2°C 49.8°F9.9°C 89% 4.5 mph SW7.2 kmh SW 8.3 mph13.4 kmh 29.20 in988.8 mb 0.06 in1.5 mm 0.01 in0.3 mm 0.31 in7.9 mm
05:03 PM 52.2°F11.2°C 49.8°F9.9°C 89% 5.4 mph SW8.7 kmh SW 9.2 mph14.8 kmh 29.19 in988.5 mb 0.06 in1.5 mm 0.00 in0.0 mm 0.31 in7.9 mm
05:08 PM 52.0°F11.1°C 49.6°F9.8°C 89% 1.6 mph NW2.6 kmh NW 3.1 mph5.0 kmh 29.20 in988.8 mb 0.06 in1.5 mm 0.00 in0.0 mm 0.31 in7.9 mm
05:13 PM 52.0°F11.1°C 49.8°F9.9°C 90% 1.6 mph SW2.6 kmh SW 2.2 mph3.5 kmh 29.21 in989.2 mb 0.06 in1.5 mm 0.00 in0.0 mm 0.31 in7.9 mm
05:17 PM 51.8°F11.0°C 49.7°F9.8°C 90% 3.1 mph SW5.0 kmh SW 3.8 mph6.1 kmh 29.21 in989.2 mb 0.07 in1.8 mm 0.18 in4.6 mm 0.32 in8.1 mm
05:18 PM 51.8°F11.0°C 49.7°F9.8°C 90% 5.4 mph SW8.7 kmh SW 7.6 mph12.2 kmh 29.21 in989.2 mb 0.07 in1.8 mm 0.00 in0.0 mm 0.32 in8.1 mm
05:22 PM 51.8°F11.0°C 49.7°F9.8°C 90% 2.2 mph SW3.5 kmh SW 4.5 mph7.2 kmh 29.21 in989.2 mb 0.07 in1.8 mm 0.00 in0.0 mm 0.32 in8.1 mm
05:23 PM 51.8°F11.0°C 49.7°F9.8°C 90% 4.5 mph SW7.2 kmh SW 9.2 mph14.8 kmh 29.22 in989.5 mb 0.07 in1.8 mm 0.00 in0.0 mm 0.32 in8.1 mm
05:28 PM 51.8°F11.0°C 49.9°F9.9°C 91% 3.1 mph S5.0 kmh S 4.5 mph7.2 kmh 29.22 in989.5 mb 0.07 in1.8 mm 0.00 in0.0 mm 0.32 in8.1 mm
05:33 PM 51.8°F11.0°C 49.9°F9.9°C 91% 3.1 mph SW5.0 kmh SW 4.5 mph7.2 kmh 29.22 in989.5 mb 0.07 in1.8 mm 0.00 in0.0 mm 0.32 in8.1 mm
05:37 PM 51.4°F10.8°C 49.8°F9.9°C 92% 4.5 mph SW7.2 kmh SW 6.0 mph9.7 kmh 29.23 in989.8 mb 0.04 in1.0 mm 0.00 in0.0 mm 0.32 in8.1 mm
05:38 PM 51.4°F10.8°C 49.8°F9.9°C 92% 2.2 mph NW3.5 kmh NW 3.8 mph6.1 kmh 29.22 in989.5 mb 0.07 in1.8 mm 2.16 in54.9 mm 0.32 in8.1 mm
05:42 PM 51.4°F10.8°C 49.8°F9.9°C 92% 4.5 mph SW7.2 kmh SW 6.0 mph9.7 kmh 29.23 in989.8 mb 0.04 in1.0 mm 0.00 in0.0 mm 0.32 in8.1 mm
05:43 PM 51.4°F10.8°C 49.8°F9.9°C 92% 4.5 mph SW7.2 kmh SW 6.0 mph9.7 kmh 29.23 in989.8 mb 0.04 in1.0 mm 0.00 in0.0 mm 0.31 in7.9 mm
05:48 PM 51.4°F10.8°C 49.8°F9.9°C 92% 1.6 mph SW2.6 kmh SW 3.1 mph5.0 kmh 29.23 in989.8 mb 0.02 in0.5 mm 0.00 in0.0 mm 0.31 in7.9 mm
05:53 PM 51.4°F10.8°C 49.8°F9.9°C 92% 2.2 mph S3.5 kmh S 3.1 mph5.0 kmh 29.23 in989.8 mb 0.02 in0.5 mm 0.00 in0.0 mm 0.31 in7.9 mm
05:57 PM 51.4°F10.8°C 49.8°F9.9°C 92% 3.8 mph S6.1 kmh S 6.9 mph11.1 kmh 29.24 in990.2 mb 0.01 in0.3 mm 0.00 in0.0 mm 0.31 in7.9 mm
05:58 PM 51.4°F10.8°C 49.8°F9.9°C 92% 1.6 mph SW2.6 kmh SW 3.8 mph6.1 kmh 29.24 in990.2 mb 0.02 in0.5 mm 0.72 in18.3 mm 0.31 in7.9 mm
06:02 PM 51.4°F10.8°C 49.8°F9.9°C 92% 3.8 mph SW6.1 kmh SW 5.4 mph8.7 kmh 29.24 in990.2 mb 0.01 in0.3 mm 0.00 in0.0 mm 0.31 in7.9 mm
06:03 PM 51.4°F10.8°C 49.8°F9.9°C 92% 5.4 mph S8.7 kmh S 7.6 mph12.2 kmh 29.24 in990.2 mb 0.01 in0.3 mm 0.00 in0.0 mm 0.31 in7.9 mm
06:08 PM 51.4°F10.8°C 49.8°F9.9°C 92% 0.7 mph S1.1 kmh S 2.2 mph3.5 kmh 29.25 in990.5 mb 0.01 in0.3 mm 0.00 in0.0 mm 0.31 in7.9 mm
06:13 PM 51.4°F10.8°C 50.0°F10.0°C 93% 3.1 mph SW5.0 kmh SW 4.5 mph7.2 kmh 29.25 in990.5 mb 0.01 in0.3 mm 0.00 in0.0 mm 0.31 in7.9 mm
06:17 PM 51.4°F10.8°C 50.0°F10.0°C 93% 2.2 mph SSW3.5 kmh SSW 3.8 mph6.1 kmh 29.26 in990.9 mb 0.00 in0.0 mm 0.00 in0.0 mm 0.31 in7.9 mm
06:18 PM 51.4°F10.8°C 50.0°F10.0°C 93% 2.2 mph SW3.5 kmh SW 4.5 mph7.2 kmh 29.25 in990.5 mb 0.01 in0.3 mm 0.72 in18.3 mm 0.31 in7.9 mm
06:22 PM 51.4°F10.8°C 50.0°F10.0°C 93% 2.2 mph SW3.5 kmh SW 3.8 mph6.1 kmh 29.25 in990.5 mb 0.00 in0.0 mm 0.00 in0.0 mm 0.31 in7.9 mm
06:23 PM 51.4°F10.8°C 50.0°F10.0°C 93% 3.1 mph S5.0 kmh S 4.5 mph7.2 kmh 29.26 in990.9 mb 0.00 in0.0 mm 0.00 in0.0 mm 0.31 in7.9 mm
06:28 PM 51.3°F10.7°C 49.8°F9.9°C 93% 3.1 mph S5.0 kmh S 4.5 mph7.2 kmh 29.26 in990.9 mb 0.00 in0.0 mm 0.00 in0.0 mm 0.31 in7.9 mm
06:33 PM 51.1°F10.6°C 49.6°F9.8°C 93% 4.5 mph S7.2 kmh S 6.0 mph9.7 kmh 29.27 in991.2 mb 0.00 in0.0 mm 0.00 in0.0 mm 0.31 in7.9 mm
06:37 PM 51.1°F10.6°C 49.6°F9.8°C 93% 6.9 mph S11.1 kmh S 9.8 mph15.8 kmh 29.27 in991.2 mb 0.00 in0.0 mm 0.00 in0.0 mm 0.31 in7.9 mm
06:38 PM 51.1°F10.6°C 49.6°F9.8°C 93% 3.8 mph W6.1 kmh W 5.4 mph8.7 kmh 29.26 in990.9 mb 0.00 in0.0 mm 0.00 in0.0 mm 0.31 in7.9 mm
06:42 PM 50.5°F10.3°C 49.1°F9.5°C 93% 7.6 mph SW12.2 kmh SW 13.0 mph20.9 kmh 29.28 in991.5 mb 0.00 in0.0 mm 0.00 in0.0 mm 0.31 in7.9 mm
06:43 PM 50.5°F10.3°C 48.9°F9.4°C 92% 6.9 mph SW11.1 kmh SW 8.3 mph13.4 kmh 29.27 in991.2 mb 0.00 in0.0 mm 0.00 in0.0 mm 0.31 in7.9 mm
06:48 PM 50.4°F10.2°C 47.8°F8.8°C 88% 5.4 mph SW8.7 kmh SW 7.6 mph12.2 kmh 29.28 in991.5 mb 0.00 in0.0 mm 0.00 in0.0 mm 0.30 in7.6 mm
06:53 PM 50.0°F10.0°C 46.5°F8.1°C 84% 6.9 mph SW11.1 kmh SW 9.2 mph14.8 kmh 29.29 in991.9 mb 0.00 in0.0 mm 0.00 in0.0 mm 0.30 in7.6 mm
06:57 PM 49.5°F9.7°C 45.8°F7.7°C 83% 6.0 mph SW9.7 kmh SW 9.2 mph14.8 kmh 29.30 in992.2 mb 0.00 in0.0 mm 0.00 in0.0 mm 0.30 in7.6 mm
06:58 PM 49.8°F9.9°C 46.1°F7.8°C 83% 2.2 mph SW3.5 kmh SW 4.5 mph7.2 kmh 29.30 in992.2 mb 0.00 in0.0 mm 0.00 in0.0 mm 0.30 in7.6 mm
07:02 PM 49.3°F9.6°C 45.4°F7.4°C 82% 2.2 mph SW3.5 kmh SW 3.8 mph6.1 kmh 29.30 in992.2 mb 0.00 in0.0 mm 0.00 in0.0 mm 0.30 in7.6 mm
07:03 PM 49.1°F9.5°C 45.2°F7.3°C 82% 4.5 mph SW7.2 kmh SW 8.3 mph13.4 kmh 29.30 in992.2 mb 0.00 in0.0 mm 0.00 in0.0 mm 0.28 in7.1 mm
07:08 PM 48.6°F9.2°C 44.9°F7.2°C 83% 3.1 mph SW5.0 kmh SW 6.9 mph11.1 kmh 29.31 in992.6 mb 0.00 in0.0 mm 0.00 in0.0 mm 0.28 in7.1 mm
07:13 PM 48.2°F9.0°C 44.5°F6.9°C 83% 5.4 mph SW8.7 kmh SW 7.6 mph12.2 kmh 29.31 in992.6 mb 0.00 in0.0 mm 0.00 in0.0 mm 0.28 in7.1 mm
07:17 PM 47.8°F8.8°C 44.4°F6.9°C 84% 3.8 mph SW6.1 kmh SW 5.4 mph8.7 kmh 29.31 in992.6 mb 0.00 in0.0 mm 0.00 in0.0 mm 0.27 in6.9 mm
07:18 PM 48.0°F8.9°C 44.6°F7.0°C 84% 3.1 mph W5.0 kmh W 4.5 mph7.2 kmh 29.31 in992.6 mb 0.00 in0.0 mm 0.00 in0.0 mm 0.28 in7.1 mm
07:22 PM 47.8°F8.8°C 44.6°F7.0°C 85% 1.6 mph SW2.6 kmh SW 3.8 mph6.1 kmh 29.32 in992.9 mb 0.00 in0.0 mm 0.00 in0.0 mm 0.27 in6.9 mm
07:23 PM 47.7°F8.7°C 44.5°F6.9°C 85% 4.5 mph SW7.2 kmh SW 8.3 mph13.4 kmh 29.32 in992.9 mb 0.00 in0.0 mm 0.00 in0.0 mm 0.27 in6.9 mm
07:28 PM 47.5°F8.6°C 44.3°F6.8°C 85% 3.1 mph SW5.0 kmh SW 9.2 mph14.8 kmh 29.33 in993.2 mb 0.00 in0.0 mm 0.00 in0.0 mm 0.27 in6.9 mm
07:33 PM 47.1°F8.4°C 43.9°F6.6°C 85% 3.8 mph SW6.1 kmh SW 6.0 mph9.7 kmh 29.33 in993.2 mb 0.00 in0.0 mm 0.00 in0.0 mm 0.27 in6.9 mm
07:37 PM 47.1°F8.4°C 43.9°F6.6°C 85% 5.4 mph SW8.7 kmh SW 8.3 mph13.4 kmh 29.34 in993.6 mb 0.00 in0.0 mm 0.00 in0.0 mm 0.26 in6.6 mm
07:38 PM 47.1°F8.4°C 43.9°F6.6°C 85% 2.2 mph S3.5 kmh S 6.0 mph9.7 kmh 29.33 in993.2 mb 0.00 in0.0 mm 0.00 in0.0 mm 0.27 in6.9 mm
07:42 PM 47.1°F8.4°C 43.9°F6.6°C 85% 1.6 mph SW2.6 kmh SW 3.1 mph5.0 kmh 29.34 in993.6 mb 0.00 in0.0 mm 0.00 in0.0 mm 0.26 in6.6 mm
07:43 PM 46.9°F8.3°C 43.8°F6.6°C 85% 3.8 mph SW6.1 kmh SW 6.0 mph9.7 kmh 29.34 in993.6 mb 0.00 in0.0 mm 0.00 in0.0 mm 0.26 in6.6 mm
07:48 PM 46.9°F8.3°C 43.8°F6.6°C 85% 1.6 mph S2.6 kmh S 3.1 mph5.0 kmh 29.34 in993.6 mb 0.00 in0.0 mm 0.00 in0.0 mm 0.26 in6.6 mm
07:53 PM 46.8°F8.2°C 43.6°F6.4°C 85% 5.4 mph NW8.7 kmh NW 8.3 mph13.4 kmh 29.35 in993.9 mb 0.00 in0.0 mm 0.00 in0.0 mm 0.26 in6.6 mm
07:57 PM 46.6°F8.1°C 43.4°F6.3°C 85% 3.8 mph SW6.1 kmh SW 6.0 mph9.7 kmh 29.35 in993.9 mb 0.00 in0.0 mm 0.00 in0.0 mm 0.25 in6.4 mm
07:58 PM 46.8°F8.2°C 43.6°F6.4°C 85% 0.7 mph SW1.1 kmh SW 2.2 mph3.5 kmh 29.35 in993.9 mb 0.00 in0.0 mm 0.00 in0.0 mm 0.26 in6.6 mm
08:02 PM 46.6°F8.1°C 43.4°F6.3°C 85% 2.2 mph SW3.5 kmh SW 3.8 mph6.1 kmh 29.36 in994.2 mb 0.00 in0.0 mm 0.00 in0.0 mm 0.25 in6.4 mm
08:03 PM 46.6°F8.1°C 43.4°F6.3°C 85% 1.6 mph SW2.6 kmh SW 3.8 mph6.1 kmh 29.36 in994.2 mb 0.00 in0.0 mm 0.00 in0.0 mm 0.25 in6.4 mm
08:08 PM 46.4°F8.0°C 43.2°F6.2°C 85% 1.6 mph SW2.6 kmh SW 4.5 mph7.2 kmh 29.36 in994.2 mb 0.00 in0.0 mm 0.00 in0.0 mm 0.25 in6.4 mm
08:11 PM 36.0°F2.2°C 28.1°F-2.2°C 64% Calm Calm 2.2 mph3.5 kmh 29.77 in1008.1 mb 0.00 in0.0 mm 0.00 in0.0 mm 0.18 in4.6 mm
08:13 PM 39.7°F4.3°C 35.2°F1.8°C 78% Calm Calm -- 29.85 in1010.8 mb 773.07 in19636.0 mm 23192.01 in589077.1 mm 773.07 in19636.0 mm
08:17 PM 46.2°F7.9°C 43.1°F6.2°C 85% 3.1 mph SW5.0 kmh SW 5.4 mph8.7 kmh 29.36 in994.2 mb 0.00 in0.0 mm 0.00 in0.0 mm 0.25 in6.4 mm
08:18 PM 39.7°F4.3°C 35.2°F1.8°C 78% Calm Calm -- 29.86 in1011.2 mb 773.07 in19636.0 mm 46384.02 in1178154.1 mm 773.07 in19636.0 mm
08:22 PM 46.2°F7.9°C 43.1°F6.2°C 85% 3.8 mph SW6.1 kmh SW 5.4 mph8.7 kmh 29.36 in994.2 mb 0.00 in0.0 mm 0.00 in0.0 mm 0.25 in6.4 mm
08:23 PM 39.4°F4.1°C 34.8°F1.6°C 78% Calm Calm -- 29.85 in1010.8 mb 773.07 in19636.0 mm 46384.02 in1178154.1 mm 773.07 in19636.0 mm
08:28 PM 39.2°F4.0°C 34.6°F1.4°C 78% Calm Calm -- 29.85 in1010.8 mb 773.07 in19636.0 mm 0.00 in0.0 mm 773.07 in19636.0 mm
08:33 PM 38.8°F3.8°C 34.7°F1.5°C 80% Calm Calm -- 29.85 in1010.8 mb 773.07 in19636.0 mm 0.00 in0.0 mm 773.07 in19636.0 mm
08:37 PM 45.7°F7.6°C 42.5°F5.8°C 85% 2.2 mph SW3.5 kmh SW 3.8 mph6.1 kmh 29.37 in994.6 mb 0.00 in0.0 mm 0.00 in0.0 mm 0.21 in5.3 mm
08:38 PM 38.5°F3.6°C 34.6°F1.4°C 81% 0.7 mph SW1.1 kmh SW 1.6 mph2.6 kmh 29.86 in1011.2 mb 773.07 in19636.0 mm 46384.02 in1178154.1 mm 773.07 in19636.0 mm
08:42 PM 45.7°F7.6°C 42.8°F6.0°C 86% 3.1 mph S5.0 kmh S 4.5 mph7.2 kmh 29.37 in994.6 mb 0.00 in0.0 mm 0.00 in0.0 mm 0.21 in5.3 mm
08:43 PM 38.3°F3.5°C 34.7°F1.5°C 82% Calm Calm -- 29.86 in1011.2 mb 773.07 in19636.0 mm 46384.02 in1178154.1 mm 773.07 in19636.0 mm
08:48 PM 38.1°F3.4°C 34.5°F1.4°C 82% Calm Calm -- 29.86 in1011.2 mb 773.07 in19636.0 mm 0.00 in0.0 mm 773.07 in19636.0 mm
08:53 PM 37.9°F3.3°C 34.5°F1.4°C 83% Calm Calm 1.6 mph2.6 kmh 29.86 in1011.2 mb 773.07 in19636.0 mm 0.00 in0.0 mm 773.07 in19636.0 mm
08:57 PM 45.1°F7.3°C 42.2°F5.7°C 86% 1.6 mph SE2.6 kmh SE 2.2 mph3.5 kmh 29.38 in994.9 mb 0.00 in0.0 mm 0.00 in0.0 mm 0.19 in4.8 mm
08:58 PM 37.8°F3.2°C 34.4°F1.3°C 83% Calm Calm 0.7 mph1.1 kmh 29.86 in1011.2 mb 773.07 in19636.0 mm 46384.02 in1178154.1 mm 773.07 in19636.0 mm
09:02 PM 45.1°F7.3°C 42.2°F5.7°C 86% Calm Calm 1.6 mph2.6 kmh 29.39 in995.3 mb 0.00 in0.0 mm 0.00 in0.0 mm 0.19 in4.8 mm
09:03 PM 37.6°F3.1°C 34.4°F1.3°C 84% Calm Calm -- 29.86 in1011.2 mb 773.07 in19636.0 mm 46384.02 in1178154.1 mm 773.07 in19636.0 mm
09:08 PM 37.4°F3.0°C 34.2°F1.2°C 84% 0.7 mph SW1.1 kmh SW 1.6 mph2.6 kmh 29.86 in1011.2 mb 773.07 in19636.0 mm 0.00 in0.0 mm 773.07 in19636.0 mm
09:13 PM 37.2°F2.9°C 33.4°F0.8°C 81% 0.7 mph SW1.1 kmh SW 2.2 mph3.5 kmh 29.87 in1011.5 mb 0.00 in0.0 mm 0.00 in0.0 mm 773.07 in19636.0 mm
09:17 PM 44.8°F7.1°C 42.1°F5.6°C 87% 1.6 mph SW2.6 kmh SW 3.8 mph6.1 kmh 29.40 in995.6 mb 0.00 in0.0 mm 0.00 in0.0 mm 0.17 in4.3 mm
09:18 PM 37.0°F2.8°C 33.2°F0.7°C 81% Calm Calm -- 29.86 in1011.2 mb 0.00 in0.0 mm 0.00 in0.0 mm 773.07 in19636.0 mm
09:22 PM 44.8°F7.1°C 42.1°F5.6°C 87% Calm Calm 0.7 mph1.1 kmh 29.40 in995.6 mb 0.00 in0.0 mm 0.00 in0.0 mm 0.17 in4.3 mm
09:23 PM 36.9°F2.7°C 33.0°F0.6°C 81% Calm Calm -- 29.86 in1011.2 mb 0.00 in0.0 mm 0.00 in0.0 mm 773.07 in19636.0 mm
09:28 PM 36.9°F2.7°C 33.3°F0.7°C 82% Calm Calm -- 29.86 in1011.2 mb 0.00 in0.0 mm 0.00 in0.0 mm 773.07 in19636.0 mm
09:33 PM 36.7°F2.6°C 33.1°F0.6°C 82% Calm Calm -- 29.86 in1011.2 mb 0.00 in0.0 mm 0.00 in0.0 mm 773.07 in19636.0 mm
09:37 PM 43.2°F6.2°C 40.7°F4.8°C 88% Calm Calm -- 29.40 in995.6 mb 0.00 in0.0 mm 0.00 in0.0 mm 0.17 in4.3 mm
09:38 PM 36.7°F2.6°C 33.1°F0.6°C 82% 1.6 mph SW2.6 kmh SW 2.2 mph3.5 kmh 29.86 in1011.2 mb 0.00 in0.0 mm 0.00 in0.0 mm 773.07 in19636.0 mm
09:42 PM 42.8°F6.0°C 40.4°F4.7°C 88% Calm Calm -- 29.40 in995.6 mb 0.00 in0.0 mm 0.00 in0.0 mm 0.17 in4.3 mm
09:43 PM 36.7°F2.6°C 33.3°F0.7°C 83% 0.7 mph S1.1 kmh S 1.6 mph2.6 kmh 29.87 in1011.5 mb 0.00 in0.0 mm 0.00 in0.0 mm 773.07 in19636.0 mm
09:48 PM 36.5°F2.5°C 33.1°F0.6°C 83% 0.7 mph SW1.1 kmh SW 2.2 mph3.5 kmh 29.87 in1011.5 mb 0.00 in0.0 mm 0.00 in0.0 mm 773.07 in19636.0 mm
09:53 PM 36.5°F2.5°C 33.1°F0.6°C 83% 0.7 mph SW1.1 kmh SW 1.6 mph2.6 kmh 29.87 in1011.5 mb 0.00 in0.0 mm 0.00 in0.0 mm 773.07 in19636.0 mm
09:57 PM 41.5°F5.3°C 39.3°F4.1°C 89% Calm Calm -- 29.41 in995.9 mb 0.00 in0.0 mm 0.00 in0.0 mm 0.15 in3.8 mm
09:58 PM 36.3°F2.4°C 33.2°F0.7°C 84% Calm Calm -- 29.86 in1011.2 mb 0.00 in0.0 mm 0.00 in0.0 mm 773.07 in19636.0 mm
10:02 PM 41.4°F5.2°C 39.2°F4.0°C 89% Calm Calm -- 29.41 in995.9 mb 0.00 in0.0 mm 0.00 in0.0 mm 0.15 in3.8 mm
10:03 PM 36.3°F2.4°C 33.2°F0.7°C 84% Calm Calm -- 29.87 in1011.5 mb 0.00 in0.0 mm 0.00 in0.0 mm 773.07 in19636.0 mm
10:08 PM 36.3°F2.4°C 33.2°F0.7°C 84% Calm Calm -- 29.87 in1011.5 mb 0.00 in0.0 mm 0.00 in0.0 mm 773.07 in19636.0 mm
10:13 PM 36.3°F2.4°C 33.2°F0.7°C 84% Calm Calm -- 29.87 in1011.5 mb 0.00 in0.0 mm 0.00 in0.0 mm 773.07 in19636.0 mm
10:17 PM 41.0°F5.0°C 39.0°F3.9°C 90% Calm Calm -- 29.42 in996.3 mb 0.00 in0.0 mm 0.00 in0.0 mm 0.14 in3.6 mm
10:18 PM 36.1°F2.3°C 33.2°F0.7°C 85% 1.6 mph SW2.6 kmh SW 3.1 mph5.0 kmh 29.87 in1011.5 mb 0.00 in0.0 mm 0.00 in0.0 mm 773.07 in19636.0 mm
10:22 PM 40.8°F4.9°C 39.0°F3.9°C 91% Calm Calm -- 29.42 in996.3 mb 0.00 in0.0 mm 0.00 in0.0 mm 0.14 in3.6 mm
10:23 PM 36.1°F2.3°C 33.2°F0.7°C 85% 0.7 mph SW1.1 kmh SW 1.6 mph2.6 kmh 29.87 in1011.5 mb 0.00 in0.0 mm 0.00 in0.0 mm 773.07 in19636.0 mm
10:28 PM 36.1°F2.3°C 33.2°F0.7°C 85% 0.7 mph SW1.1 kmh SW 2.2 mph3.5 kmh 29.87 in1011.5 mb 0.00 in0.0 mm 0.00 in0.0 mm 773.07 in19636.0 mm
10:33 PM 36.1°F2.3°C 33.4°F0.8°C 86% 0.7 mph SW1.1 kmh SW 1.6 mph2.6 kmh 29.87 in1011.5 mb 0.00 in0.0 mm 0.00 in0.0 mm 773.07 in19636.0 mm
10:37 PM 39.7°F4.3°C 38.2°F3.4°C 92% Calm Calm -- 29.42 in996.3 mb 0.00 in0.0 mm 0.00 in0.0 mm 0.12 in3.0 mm
10:38 PM 36.1°F2.3°C 33.4°F0.8°C 86% 0.7 mph SW1.1 kmh SW 1.6 mph2.6 kmh 29.88 in1011.9 mb 0.00 in0.0 mm 0.00 in0.0 mm 773.07 in19636.0 mm
10:42 PM 39.7°F4.3°C 38.2°F3.4°C 92% Calm Calm -- 29.43 in996.6 mb 0.00 in0.0 mm 0.00 in0.0 mm 0.12 in3.0 mm
10:43 PM 36.1°F2.3°C 33.4°F0.8°C 86% Calm Calm 0.7 mph1.1 kmh 29.87 in1011.5 mb 0.00 in0.0 mm 0.00 in0.0 mm 773.07 in19636.0 mm
10:48 PM 36.1°F2.3°C 33.4°F0.8°C 86% 0.7 mph SW1.1 kmh SW 1.6 mph2.6 kmh 29.88 in1011.9 mb 0.00 in0.0 mm 0.00 in0.0 mm 773.07 in19636.0 mm
10:53 PM 36.1°F2.3°C 33.4°F0.8°C 86% 0.7 mph SW1.1 kmh SW 1.6 mph2.6 kmh 29.88 in1011.9 mb 0.00 in0.0 mm 0.00 in0.0 mm 773.07 in19636.0 mm
10:57 PM 39.0°F3.9°C 37.7°F3.2°C 93% Calm Calm -- 29.43 in996.6 mb 0.00 in0.0 mm 0.00 in0.0 mm 0.11 in2.8 mm
10:58 PM 36.3°F2.4°C 33.6°F0.9°C 86% Calm Calm 0.7 mph1.1 kmh 29.87 in1011.5 mb 0.00 in0.0 mm 0.00 in0.0 mm 773.07 in19636.0 mm
11:02 PM 39.0°F3.9°C 37.7°F3.2°C 93% Calm Calm -- 29.44 in997.0 mb 0.00 in0.0 mm 0.00 in0.0 mm 0.11 in2.8 mm
11:03 PM 36.3°F2.4°C 33.6°F0.9°C 86% Calm Calm -- 29.87 in1011.5 mb 0.00 in0.0 mm 0.00 in0.0 mm 773.07 in19636.0 mm
11:08 PM 36.1°F2.3°C 33.4°F0.8°C 86% Calm Calm -- 29.87 in1011.5 mb 0.00 in0.0 mm 0.00 in0.0 mm 773.07 in19636.0 mm
11:13 PM 36.1°F2.3°C 33.4°F0.8°C 86% Calm Calm 0.7 mph1.1 kmh 29.87 in1011.5 mb 0.00 in0.0 mm 0.00 in0.0 mm 773.07 in19636.0 mm
11:17 PM 38.8°F3.8°C 37.5°F3.1°C 93% Calm Calm -- 29.44 in997.0 mb 0.00 in0.0 mm 0.00 in0.0 mm 0.11 in2.8 mm
11:18 PM 36.1°F2.3°C 33.4°F0.8°C 86% Calm Calm 1.6 mph2.6 kmh 29.87 in1011.5 mb 0.00 in0.0 mm 0.00 in0.0 mm 773.07 in19636.0 mm
11:22 PM 38.7°F3.7°C 37.3°F2.9°C 93% Calm Calm -- 29.44 in997.0 mb 0.00 in0.0 mm 0.00 in0.0 mm 0.11 in2.8 mm
11:23 PM 36.1°F2.3°C 33.6°F0.9°C 87% 1.6 mph S2.6 kmh S 2.2 mph3.5 kmh 29.88 in1011.9 mb 0.00 in0.0 mm 0.00 in0.0 mm 773.07 in19636.0 mm
11:28 PM 36.1°F2.3°C 33.6°F0.9°C 87% 0.7 mph SW1.1 kmh SW 1.6 mph2.6 kmh 29.87 in1011.5 mb 0.00 in0.0 mm 0.00 in0.0 mm 773.07 in19636.0 mm
11:33 PM 36.1°F2.3°C 33.6°F0.9°C 87% 0.7 mph S1.1 kmh S 1.6 mph2.6 kmh 29.87 in1011.5 mb 0.00 in0.0 mm 0.00 in0.0 mm 773.07 in19636.0 mm
11:37 PM 39.0°F3.9°C 37.9°F3.3°C 94% Calm Calm -- 29.45 in997.3 mb 0.00 in0.0 mm 0.00 in0.0 mm 0.11 in2.8 mm
11:38 PM 36.3°F2.4°C 34.0°F1.1°C 88% 1.6 mph SW2.6 kmh SW 2.2 mph3.5 kmh 29.88 in1011.9 mb 0.00 in0.0 mm 0.00 in0.0 mm 773.07 in19636.0 mm
11:42 PM 39.2°F4.0°C 37.9°F3.3°C 93% Calm Calm -- 29.45 in997.3 mb 0.00 in0.0 mm 0.00 in0.0 mm 0.11 in2.8 mm
11:43 PM 36.3°F2.4°C 34.0°F1.1°C 88% Calm Calm 0.7 mph1.1 kmh 29.87 in1011.5 mb 0.00 in0.0 mm 0.00 in0.0 mm 773.07 in19636.0 mm
11:48 PM 36.3°F2.4°C 34.0°F1.1°C 88% Calm Calm -- 29.88 in1011.9 mb 0.00 in0.0 mm 0.00 in0.0 mm 773.07 in19636.0 mm
11:53 PM 36.3°F2.4°C 34.0°F1.1°C 88% 1.6 mph S2.6 kmh S 2.2 mph3.5 kmh 29.87 in1011.5 mb 0.00 in0.0 mm 0.00 in0.0 mm 773.07 in19636.0 mm
11:57 PM 38.3°F3.5°C 37.2°F2.9°C 94% Calm Calm -- 29.45 in997.3 mb 0.00 in0.0 mm 0.00 in0.0 mm 0.11 in2.8 mm
11:58 PM 36.3°F2.4°C 34.0°F1.1°C 88% 0.7 mph SW1.1 kmh SW 1.6 mph2.6 kmh 29.88 in1011.9 mb 0.00 in0.0 mm 0.00 in0.0 mm 773.07 in19636.0 mm